PWSweather.com
Personal Weather Stations
Station Observations
DL5ARK
SonnebergDE

SonnebergDE

Lat: 50.34904861, Lon: 11.18112087

Elevation: 1214

Station Type: Selfmade

http://www.sumbarg.de

High Low Average
Temperature 101.1°F38.4°C 57.1°F13.9°C 80.6°F27.0°C
Dew Point 76.9°F24.9°C 59.4°F15.2°C 69.2°F20.7°C
Winds 11.3 mph 18.2 kmh Calm Calm 2.0 mph SSW3.2 kmh SSW
Wind Gusts 11.4 mph18.3 kmh -- 2.0 mph3.2 kmh
Humidity 79% 29% 53%
Pressure 30.23 in1023.7 mb 30.16 in1021.3 mb -
Precipitation 0.00 in0.0 mm - -
Hour Temp Dew Point Humidity Winds Wind Gusts Pressure Precip Precip Rate Daily Precip Total
12:00 AM 61.6°F16.4°C 63.1°F17.3°C 67% Calm Calm -- 30.18 in1022.0 mb 0.00 in0.0 mm 0.00 in0.0 mm 0.00 in0.0 mm
12:03 AM 61.6°F16.4°C 63.3°F17.4°C 68% Calm Calm -- 30.18 in1022.0 mb 0.00 in0.0 mm 0.00 in0.0 mm 0.00 in0.0 mm
12:09 AM 61.4°F16.3°C 63.5°F17.5°C 68% Calm Calm -- 30.18 in1022.0 mb 0.00 in0.0 mm 0.00 in0.0 mm 0.00 in0.0 mm
12:12 AM 61.1°F16.2°C 63.3°F17.4°C 69% Calm Calm -- 30.18 in1022.0 mb 0.00 in0.0 mm 0.00 in0.0 mm 0.00 in0.0 mm
12:15 AM 61.0°F16.1°C 62.9°F17.2°C 68% Calm Calm -- 30.18 in1022.0 mb 0.00 in0.0 mm 0.00 in0.0 mm 0.00 in0.0 mm
12:18 AM 61.7°F16.5°C 63.3°F17.4°C 70% Calm Calm -- 30.18 in1022.0 mb 0.00 in0.0 mm 0.00 in0.0 mm 0.00 in0.0 mm
12:24 AM 61.3°F16.3°C 62.5°F16.9°C 68% Calm Calm -- 30.18 in1022.0 mb 0.00 in0.0 mm 0.00 in0.0 mm 0.00 in0.0 mm
12:27 AM 60.9°F16.1°C 62.5°F16.9°C 69% Calm Calm -- 30.18 in1022.0 mb 0.00 in0.0 mm 0.00 in0.0 mm 0.00 in0.0 mm
12:30 AM 61.0°F16.1°C 63.0°F17.2°C 69% Calm Calm -- 30.18 in1022.0 mb 0.00 in0.0 mm 0.00 in0.0 mm 0.00 in0.0 mm
12:33 AM 61.1°F16.2°C 62.8°F17.1°C 69% Calm Calm -- 30.18 in1022.0 mb 0.00 in0.0 mm 0.00 in0.0 mm 0.00 in0.0 mm
12:36 AM 60.6°F15.9°C 62.3°F16.8°C 69% Calm Calm -- 30.18 in1022.0 mb 0.00 in0.0 mm 0.00 in0.0 mm 0.00 in0.0 mm
12:39 AM 60.8°F16.0°C 62.4°F16.9°C 69% Calm Calm -- 30.18 in1022.0 mb 0.00 in0.0 mm 0.00 in0.0 mm 0.00 in0.0 mm
12:42 AM 60.4°F15.8°C 62.2°F16.8°C 69% Calm Calm -- 30.18 in1022.0 mb 0.00 in0.0 mm 0.00 in0.0 mm 0.00 in0.0 mm
12:45 AM 60.5°F15.8°C 62.2°F16.8°C 69% Calm Calm -- 30.18 in1022.0 mb 0.00 in0.0 mm 0.00 in0.0 mm 0.00 in0.0 mm
12:51 AM 60.1°F15.6°C 62.1°F16.7°C 69% Calm Calm -- 30.18 in1022.0 mb 0.00 in0.0 mm 0.00 in0.0 mm 0.00 in0.0 mm
12:54 AM 60.0°F15.6°C 62.2°F16.8°C 70% Calm Calm -- 30.18 in1022.0 mb 0.00 in0.0 mm 0.00 in0.0 mm 0.00 in0.0 mm
12:57 AM 60.0°F15.6°C 62.1°F16.7°C 70% Calm Calm -- 30.18 in1022.0 mb 0.00 in0.0 mm 0.00 in0.0 mm 0.00 in0.0 mm
01:00 AM 59.8°F15.4°C 61.7°F16.5°C 70% Calm Calm -- 30.18 in1022.0 mb 0.00 in0.0 mm 0.00 in0.0 mm 0.00 in0.0 mm
01:03 AM 60.6°F15.9°C 61.8°F16.6°C 70% Calm Calm -- 30.18 in1022.0 mb 0.00 in0.0 mm 0.00 in0.0 mm 0.00 in0.0 mm
01:06 AM 60.2°F15.7°C 61.5°F16.4°C 69% Calm Calm -- 30.18 in1022.0 mb 0.00 in0.0 mm 0.00 in0.0 mm 0.00 in0.0 mm
01:09 AM 60.0°F15.6°C 61.9°F16.6°C 70% Calm Calm -- 30.18 in1022.0 mb 0.00 in0.0 mm 0.00 in0.0 mm 0.00 in0.0 mm
01:15 AM 60.0°F15.6°C 61.8°F16.6°C 71% Calm Calm -- 30.18 in1022.0 mb 0.00 in0.0 mm 0.00 in0.0 mm 0.00 in0.0 mm
01:18 AM 60.0°F15.6°C 61.5°F16.4°C 70% Calm Calm -- 30.18 in1022.0 mb 0.00 in0.0 mm 0.00 in0.0 mm 0.00 in0.0 mm
01:21 AM 60.1°F15.6°C 62.5°F16.9°C 72% Calm Calm -- 30.18 in1022.0 mb 0.00 in0.0 mm 0.00 in0.0 mm 0.00 in0.0 mm
01:24 AM 59.7°F15.4°C 62.3°F16.8°C 72% Calm Calm -- 30.18 in1022.0 mb 0.00 in0.0 mm 0.00 in0.0 mm 0.00 in0.0 mm
01:27 AM 59.3°F15.2°C 62.0°F16.7°C 72% Calm Calm -- 30.18 in1022.0 mb 0.00 in0.0 mm 0.00 in0.0 mm 0.00 in0.0 mm
01:30 AM 60.0°F15.6°C 62.5°F16.9°C 74% Calm Calm -- 30.18 in1022.0 mb 0.00 in0.0 mm 0.00 in0.0 mm 0.00 in0.0 mm
01:33 AM 59.5°F15.3°C 62.2°F16.8°C 73% Calm Calm -- 30.18 in1022.0 mb 0.00 in0.0 mm 0.00 in0.0 mm 0.00 in0.0 mm
01:36 AM 59.2°F15.1°C 61.5°F16.4°C 72% Calm Calm -- 30.18 in1022.0 mb 0.00 in0.0 mm 0.00 in0.0 mm 0.00 in0.0 mm
01:39 AM 59.5°F15.3°C 61.2°F16.2°C 71% Calm Calm -- 30.18 in1022.0 mb 0.00 in0.0 mm 0.00 in0.0 mm 0.00 in0.0 mm
01:42 AM 59.8°F15.4°C 61.1°F16.2°C 71% Calm Calm -- 30.18 in1022.0 mb 0.00 in0.0 mm 0.00 in0.0 mm 0.00 in0.0 mm
01:45 AM 59.7°F15.4°C 61.4°F16.3°C 71% Calm Calm -- 30.18 in1022.0 mb 0.00 in0.0 mm 0.00 in0.0 mm 0.00 in0.0 mm
01:48 AM 59.7°F15.4°C 61.0°F16.1°C 71% Calm Calm -- 30.18 in1022.0 mb 0.00 in0.0 mm 0.00 in0.0 mm 0.00 in0.0 mm
01:51 AM 59.6°F15.3°C 60.9°F16.1°C 71% Calm Calm -- 30.18 in1022.0 mb 0.00 in0.0 mm 0.00 in0.0 mm 0.00 in0.0 mm
01:54 AM 59.2°F15.1°C 61.0°F16.1°C 71% Calm Calm -- 30.18 in1022.0 mb 0.00 in0.0 mm 0.00 in0.0 mm 0.00 in0.0 mm
01:57 AM 59.2°F15.1°C 61.1°F16.2°C 71% Calm Calm -- 30.18 in1022.0 mb 0.00 in0.0 mm 0.00 in0.0 mm 0.00 in0.0 mm
02:00 AM 59.1°F15.1°C 61.0°F16.1°C 72% Calm Calm -- 30.18 in1022.0 mb 0.00 in0.0 mm 0.00 in0.0 mm 0.00 in0.0 mm
02:03 AM 58.9°F14.9°C 60.9°F16.1°C 71% Calm Calm -- 30.18 in1022.0 mb 0.00 in0.0 mm 0.00 in0.0 mm 0.00 in0.0 mm
02:06 AM 58.7°F14.8°C 61.0°F16.1°C 72% Calm Calm -- 30.18 in1022.0 mb 0.00 in0.0 mm 0.00 in0.0 mm 0.00 in0.0 mm
02:09 AM 58.4°F14.7°C 61.5°F16.4°C 74% Calm Calm -- 30.18 in1022.0 mb 0.00 in0.0 mm 0.00 in0.0 mm 0.00 in0.0 mm
02:12 AM 58.7°F14.8°C 60.9°F16.1°C 72% Calm Calm -- 30.18 in1022.0 mb 0.00 in0.0 mm 0.00 in0.0 mm 0.00 in0.0 mm
02:18 AM 58.9°F14.9°C 60.6°F15.9°C 72% Calm Calm -- 30.18 in1022.0 mb 0.00 in0.0 mm 0.00 in0.0 mm 0.00 in0.0 mm
02:21 AM 59.1°F15.1°C 60.5°F15.8°C 72% Calm Calm -- 30.18 in1022.0 mb 0.00 in0.0 mm 0.00 in0.0 mm 0.00 in0.0 mm
02:24 AM 59.1°F15.1°C 60.6°F15.9°C 72% Calm Calm -- 30.18 in1022.0 mb 0.00 in0.0 mm 0.00 in0.0 mm 0.00 in0.0 mm
02:27 AM 58.9°F14.9°C 60.9°F16.1°C 73% Calm Calm -- 30.18 in1022.0 mb 0.00 in0.0 mm 0.00 in0.0 mm 0.00 in0.0 mm
02:30 AM 58.7°F14.8°C 60.9°F16.1°C 73% Calm Calm -- 30.18 in1022.0 mb 0.00 in0.0 mm 0.00 in0.0 mm 0.00 in0.0 mm
02:33 AM 58.7°F14.8°C 61.2°F16.2°C 74% Calm Calm -- 30.18 in1022.0 mb 0.00 in0.0 mm 0.00 in0.0 mm 0.00 in0.0 mm
02:36 AM 58.6°F14.8°C 61.0°F16.1°C 74% Calm Calm -- 30.18 in1022.0 mb 0.00 in0.0 mm 0.00 in0.0 mm 0.00 in0.0 mm
02:39 AM 58.8°F14.9°C 61.0°F16.1°C 74% Calm Calm -- 30.18 in1022.0 mb 0.00 in0.0 mm 0.00 in0.0 mm 0.00 in0.0 mm
02:42 AM 58.7°F14.8°C 60.6°F15.9°C 73% Calm Calm -- 30.18 in1022.0 mb 0.00 in0.0 mm 0.00 in0.0 mm 0.00 in0.0 mm
02:45 AM 58.7°F14.8°C 60.6°F15.9°C 73% Calm Calm -- 30.18 in1022.0 mb 0.00 in0.0 mm 0.00 in0.0 mm 0.00 in0.0 mm
02:48 AM 58.7°F14.8°C 60.4°F15.8°C 73% Calm Calm -- 30.18 in1022.0 mb 0.00 in0.0 mm 0.00 in0.0 mm 0.00 in0.0 mm
02:51 AM 58.7°F14.8°C 60.3°F15.7°C 73% Calm Calm -- 30.18 in1022.0 mb 0.00 in0.0 mm 0.00 in0.0 mm 0.00 in0.0 mm
02:54 AM 58.3°F14.6°C 60.4°F15.8°C 73% Calm Calm -- 30.18 in1022.0 mb 0.00 in0.0 mm 0.00 in0.0 mm 0.00 in0.0 mm
02:57 AM 58.2°F14.6°C 60.3°F15.7°C 74% Calm Calm -- 30.18 in1022.0 mb 0.00 in0.0 mm 0.00 in0.0 mm 0.00 in0.0 mm
03:00 AM 58.2°F14.6°C 60.5°F15.8°C 74% Calm Calm -- 30.18 in1022.0 mb 0.00 in0.0 mm 0.00 in0.0 mm 0.00 in0.0 mm
03:03 AM 58.2°F14.6°C 60.2°F15.7°C 73% Calm Calm -- 30.18 in1022.0 mb 0.00 in0.0 mm 0.00 in0.0 mm 0.00 in0.0 mm
03:06 AM 58.2°F14.6°C 59.9°F15.5°C 72% Calm Calm -- 30.18 in1022.0 mb 0.00 in0.0 mm 0.00 in0.0 mm 0.00 in0.0 mm
03:09 AM 58.4°F14.7°C 60.1°F15.6°C 73% Calm Calm -- 30.18 in1022.0 mb 0.00 in0.0 mm 0.00 in0.0 mm 0.00 in0.0 mm
03:12 AM 58.4°F14.7°C 59.9°F15.5°C 73% Calm Calm -- 30.18 in1022.0 mb 0.00 in0.0 mm 0.00 in0.0 mm 0.00 in0.0 mm
03:15 AM 58.4°F14.7°C 59.8°F15.4°C 72% Calm Calm -- 30.18 in1022.0 mb 0.00 in0.0 mm 0.00 in0.0 mm 0.00 in0.0 mm
03:18 AM 58.3°F14.6°C 59.7°F15.4°C 72% Calm Calm -- 30.18 in1022.0 mb 0.00 in0.0 mm 0.00 in0.0 mm 0.00 in0.0 mm
03:21 AM 57.9°F14.4°C 59.6°F15.3°C 72% Calm Calm -- 30.18 in1022.0 mb 0.00 in0.0 mm 0.00 in0.0 mm 0.00 in0.0 mm
03:24 AM 57.9°F14.4°C 59.7°F15.4°C 73% Calm Calm -- 30.18 in1022.0 mb 0.00 in0.0 mm 0.00 in0.0 mm 0.00 in0.0 mm
03:30 AM 57.9°F14.4°C 59.9°F15.5°C 73% Calm Calm -- 30.18 in1022.0 mb 0.00 in0.0 mm 0.00 in0.0 mm 0.00 in0.0 mm
03:33 AM 58.2°F14.6°C 60.8°F16.0°C 76% Calm Calm -- 30.18 in1022.0 mb 0.00 in0.0 mm 0.00 in0.0 mm 0.00 in0.0 mm
03:36 AM 58.0°F14.4°C 60.4°F15.8°C 75% Calm Calm -- 30.18 in1022.0 mb 0.00 in0.0 mm 0.00 in0.0 mm 0.00 in0.0 mm
03:39 AM 58.1°F14.5°C 60.7°F15.9°C 77% Calm Calm -- 30.18 in1022.0 mb 0.00 in0.0 mm 0.00 in0.0 mm 0.00 in0.0 mm
03:42 AM 57.5°F14.2°C 60.4°F15.8°C 76% Calm Calm -- 30.19 in1022.4 mb 0.00 in0.0 mm 0.00 in0.0 mm 0.00 in0.0 mm
03:45 AM 57.7°F14.3°C 59.9°F15.5°C 75% Calm Calm -- 30.19 in1022.4 mb 0.00 in0.0 mm 0.00 in0.0 mm 0.00 in0.0 mm
03:48 AM 57.1°F13.9°C 59.7°F15.4°C 74% Calm Calm -- 30.18 in1022.0 mb 0.00 in0.0 mm 0.00 in0.0 mm 0.00 in0.0 mm
03:51 AM 57.8°F14.3°C 59.4°F15.2°C 74% Calm Calm -- 30.19 in1022.4 mb 0.00 in0.0 mm 0.00 in0.0 mm 0.00 in0.0 mm
03:54 AM 58.7°F14.8°C 59.7°F15.4°C 75% Calm Calm -- 30.18 in1022.0 mb 0.00 in0.0 mm 0.00 in0.0 mm 0.00 in0.0 mm
03:57 AM 58.3°F14.6°C 59.7°F15.4°C 74% Calm Calm -- 30.18 in1022.0 mb 0.00 in0.0 mm 0.00 in0.0 mm 0.00 in0.0 mm
04:00 AM 58.1°F14.5°C 60.0°F15.6°C 75% Calm Calm -- 30.18 in1022.0 mb 0.00 in0.0 mm 0.00 in0.0 mm 0.00 in0.0 mm
04:03 AM 58.2°F14.6°C 59.9°F15.5°C 75% Calm Calm -- 30.18 in1022.0 mb 0.00 in0.0 mm 0.00 in0.0 mm 0.00 in0.0 mm
04:06 AM 57.8°F14.3°C 59.9°F15.5°C 75% Calm Calm -- 30.18 in1022.0 mb 0.00 in0.0 mm 0.00 in0.0 mm 0.00 in0.0 mm
04:09 AM 58.1°F14.5°C 59.9°F15.5°C 75% Calm Calm -- 30.18 in1022.0 mb 0.00 in0.0 mm 0.00 in0.0 mm 0.00 in0.0 mm
04:15 AM 58.1°F14.5°C 59.9°F15.5°C 75% Calm Calm -- 30.18 in1022.0 mb 0.00 in0.0 mm 0.00 in0.0 mm 0.00 in0.0 mm
04:18 AM 57.8°F14.3°C 59.6°F15.3°C 75% Calm Calm -- 30.18 in1022.0 mb 0.00 in0.0 mm 0.00 in0.0 mm 0.00 in0.0 mm
04:21 AM 57.8°F14.3°C 60.3°F15.7°C 77% Calm Calm -- 30.18 in1022.0 mb 0.00 in0.0 mm 0.00 in0.0 mm 0.00 in0.0 mm
04:24 AM 57.8°F14.3°C 60.2°F15.7°C 77% Calm Calm -- 30.18 in1022.0 mb 0.00 in0.0 mm 0.00 in0.0 mm 0.00 in0.0 mm
04:27 AM 57.8°F14.3°C 59.9°F15.5°C 76% Calm Calm -- 30.18 in1022.0 mb 0.00 in0.0 mm 0.00 in0.0 mm 0.00 in0.0 mm
04:30 AM 58.0°F14.4°C 59.7°F15.4°C 76% Calm Calm -- 30.18 in1022.0 mb 0.00 in0.0 mm 0.00 in0.0 mm 0.00 in0.0 mm
04:33 AM 58.8°F14.9°C 59.9°F15.5°C 76% Calm Calm -- 30.18 in1022.0 mb 0.00 in0.0 mm 0.00 in0.0 mm 0.00 in0.0 mm
04:36 AM 58.6°F14.8°C 60.4°F15.8°C 77% Calm Calm -- 30.18 in1022.0 mb 0.00 in0.0 mm 0.00 in0.0 mm 0.00 in0.0 mm
04:39 AM 58.6°F14.8°C 60.3°F15.7°C 77% Calm Calm -- 30.18 in1022.0 mb 0.00 in0.0 mm 0.00 in0.0 mm 0.00 in0.0 mm
04:42 AM 58.7°F14.8°C 60.3°F15.7°C 77% Calm Calm -- 30.18 in1022.0 mb 0.00 in0.0 mm 0.00 in0.0 mm 0.00 in0.0 mm
04:45 AM 59.0°F15.0°C 60.4°F15.8°C 77% Calm Calm -- 30.18 in1022.0 mb 0.00 in0.0 mm 0.00 in0.0 mm 0.00 in0.0 mm
04:48 AM 59.1°F15.1°C 60.5°F15.8°C 78% Calm Calm -- 30.18 in1022.0 mb 0.00 in0.0 mm 0.00 in0.0 mm 0.00 in0.0 mm
04:51 AM 59.0°F15.0°C 60.6°F15.9°C 78% Calm Calm -- 30.18 in1022.0 mb 0.00 in0.0 mm 0.00 in0.0 mm 0.00 in0.0 mm
04:54 AM 59.3°F15.2°C 60.4°F15.8°C 77% Calm Calm -- 30.18 in1022.0 mb 0.00 in0.0 mm 0.00 in0.0 mm 0.00 in0.0 mm
04:57 AM 59.7°F15.4°C 60.7°F15.9°C 77% Calm Calm -- 30.18 in1022.0 mb 0.00 in0.0 mm 0.00 in0.0 mm 0.00 in0.0 mm
05:00 AM 59.8°F15.4°C 60.9°F16.1°C 78% Calm Calm -- 30.18 in1022.0 mb 0.00 in0.0 mm 0.00 in0.0 mm 0.00 in0.0 mm
05:03 AM 60.1°F15.6°C 61.3°F16.3°C 77% Calm Calm -- 30.18 in1022.0 mb 0.00 in0.0 mm 0.00 in0.0 mm 0.00 in0.0 mm
05:06 AM 60.2°F15.7°C 61.1°F16.2°C 77% Calm Calm -- 30.18 in1022.0 mb 0.00 in0.0 mm 0.00 in0.0 mm 0.00 in0.0 mm
05:09 AM 60.7°F15.9°C 61.5°F16.4°C 77% Calm Calm -- 30.18 in1022.0 mb 0.00 in0.0 mm 0.00 in0.0 mm 0.00 in0.0 mm
05:12 AM 60.6°F15.9°C 61.4°F16.3°C 77% Calm Calm -- 30.19 in1022.4 mb 0.00 in0.0 mm 0.00 in0.0 mm 0.00 in0.0 mm
05:15 AM 61.0°F16.1°C 62.6°F17.0°C 78% Calm Calm -- 30.19 in1022.4 mb 0.00 in0.0 mm 0.00 in0.0 mm 0.00 in0.0 mm
05:18 AM 61.7°F16.5°C 62.7°F17.1°C 79% Calm Calm -- 30.18 in1022.0 mb 0.00 in0.0 mm 0.00 in0.0 mm 0.00 in0.0 mm
05:21 AM 61.9°F16.6°C 63.2°F17.3°C 79% Calm Calm -- 30.18 in1022.0 mb 0.00 in0.0 mm 0.00 in0.0 mm 0.00 in0.0 mm
05:24 AM 62.2°F16.8°C 63.4°F17.4°C 78% Calm Calm -- 30.18 in1022.0 mb 0.00 in0.0 mm 0.00 in0.0 mm 0.00 in0.0 mm
05:27 AM 62.7°F17.1°C 63.6°F17.6°C 77% Calm Calm -- 30.18 in1022.0 mb 0.00 in0.0 mm 0.00 in0.0 mm 0.00 in0.0 mm
05:30 AM 63.4°F17.4°C 64.3°F17.9°C 78% Calm Calm -- 30.19 in1022.4 mb 0.00 in0.0 mm 0.00 in0.0 mm 0.00 in0.0 mm
05:33 AM 63.6°F17.6°C 64.2°F17.9°C 76% Calm Calm -- 30.18 in1022.0 mb 0.00 in0.0 mm 0.00 in0.0 mm 0.00 in0.0 mm
05:36 AM 64.5°F18.1°C 64.6°F18.1°C 75% Calm Calm -- 30.19 in1022.4 mb 0.00 in0.0 mm 0.00 in0.0 mm 0.00 in0.0 mm
05:42 AM 66.2°F19.0°C 64.8°F18.2°C 74% Calm Calm -- 30.18 in1022.0 mb 0.00 in0.0 mm 0.00 in0.0 mm 0.00 in0.0 mm
05:45 AM 66.7°F19.3°C 65.0°F18.3°C 72% Calm Calm -- 30.19 in1022.4 mb 0.00 in0.0 mm 0.00 in0.0 mm 0.00 in0.0 mm
05:48 AM 66.5°F19.2°C 65.1°F18.4°C 71% Calm Calm -- 30.19 in1022.4 mb 0.00 in0.0 mm 0.00 in0.0 mm 0.00 in0.0 mm
05:51 AM 67.7°F19.8°C 65.4°F18.6°C 71% Calm Calm -- 30.19 in1022.4 mb 0.00 in0.0 mm 0.00 in0.0 mm 0.00 in0.0 mm
05:54 AM 68.2°F20.1°C 65.9°F18.8°C 70% Calm Calm -- 30.19 in1022.4 mb 0.00 in0.0 mm 0.00 in0.0 mm 0.00 in0.0 mm
05:57 AM 69.0°F20.6°C 66.1°F18.9°C 69% Calm Calm -- 30.19 in1022.4 mb 0.00 in0.0 mm 0.00 in0.0 mm 0.00 in0.0 mm
06:00 AM 68.9°F20.5°C 66.4°F19.1°C 68% Calm Calm -- 30.19 in1022.4 mb 0.00 in0.0 mm 0.00 in0.0 mm 0.00 in0.0 mm
06:03 AM 69.5°F20.8°C 66.6°F19.2°C 68% Calm Calm -- 30.19 in1022.4 mb 0.00 in0.0 mm 0.00 in0.0 mm 0.00 in0.0 mm
06:06 AM 69.7°F20.9°C 67.1°F19.5°C 67% Calm Calm -- 30.19 in1022.4 mb 0.00 in0.0 mm 0.00 in0.0 mm 0.00 in0.0 mm
06:12 AM 71.8°F22.1°C 67.6°F19.8°C 66% Calm Calm -- 30.19 in1022.4 mb 0.00 in0.0 mm 0.00 in0.0 mm 0.00 in0.0 mm
06:15 AM 71.9°F22.2°C 68.0°F20.0°C 66% Calm Calm -- 30.19 in1022.4 mb 0.00 in0.0 mm 0.00 in0.0 mm 0.00 in0.0 mm
06:18 AM 72.5°F22.5°C 68.4°F20.2°C 66% Calm Calm -- 30.19 in1022.4 mb 0.00 in0.0 mm 0.00 in0.0 mm 0.00 in0.0 mm
06:21 AM 73.3°F22.9°C 68.1°F20.1°C 65% Calm Calm -- 30.19 in1022.4 mb 0.00 in0.0 mm 0.00 in0.0 mm 0.00 in0.0 mm
06:24 AM 74.3°F23.5°C 67.7°F19.8°C 63% Calm Calm -- 30.20 in1022.7 mb 0.00 in0.0 mm 0.00 in0.0 mm 0.00 in0.0 mm
06:27 AM 74.1°F23.4°C 68.1°F20.1°C 64% Calm Calm -- 30.19 in1022.4 mb 0.00 in0.0 mm 0.00 in0.0 mm 0.00 in0.0 mm
06:30 AM 75.4°F24.1°C 68.6°F20.3°C 64% Calm Calm -- 30.20 in1022.7 mb 0.00 in0.0 mm 0.00 in0.0 mm 0.00 in0.0 mm
06:33 AM 75.8°F24.3°C 69.3°F20.7°C 64% Calm Calm -- 30.20 in1022.7 mb 0.00 in0.0 mm 0.00 in0.0 mm 0.00 in0.0 mm
06:36 AM 76.9°F24.9°C 69.1°F20.6°C 62% Calm Calm -- 30.20 in1022.7 mb 0.00 in0.0 mm 0.00 in0.0 mm 0.00 in0.0 mm
06:39 AM 76.8°F24.9°C 68.9°F20.5°C 61% Calm Calm -- 30.20 in1022.7 mb 0.00 in0.0 mm 0.00 in0.0 mm 0.00 in0.0 mm
06:42 AM 77.8°F25.4°C 69.1°F20.6°C 61% Calm Calm -- 30.20 in1022.7 mb 0.00 in0.0 mm 0.00 in0.0 mm 0.00 in0.0 mm
06:45 AM 76.9°F24.9°C 69.0°F20.6°C 60% Calm Calm -- 30.20 in1022.7 mb 0.00 in0.0 mm 0.00 in0.0 mm 0.00 in0.0 mm
06:48 AM 77.3°F25.2°C 69.0°F20.6°C 59% Calm Calm -- 30.20 in1022.7 mb 0.00 in0.0 mm 0.00 in0.0 mm 0.00 in0.0 mm
06:51 AM 77.7°F25.4°C 68.4°F20.2°C 58% Calm Calm -- 30.20 in1022.7 mb 0.00 in0.0 mm 0.00 in0.0 mm 0.00 in0.0 mm
06:54 AM 77.6°F25.3°C 69.7°F20.9°C 59% Calm Calm -- 30.20 in1022.7 mb 0.00 in0.0 mm 0.00 in0.0 mm 0.00 in0.0 mm
06:57 AM 78.8°F26.0°C 69.7°F20.9°C 60% Calm Calm -- 30.20 in1022.7 mb 0.00 in0.0 mm 0.00 in0.0 mm 0.00 in0.0 mm
07:00 AM 79.5°F26.4°C 70.4°F21.3°C 61% Calm Calm -- 30.20 in1022.7 mb 0.00 in0.0 mm 0.00 in0.0 mm 0.00 in0.0 mm
07:03 AM 79.1°F26.2°C 71.3°F21.8°C 61% Calm Calm -- 30.20 in1022.7 mb 0.00 in0.0 mm 0.00 in0.0 mm 0.00 in0.0 mm
07:06 AM 78.5°F25.8°C 70.0°F21.1°C 58% Calm Calm -- 30.20 in1022.7 mb 0.00 in0.0 mm 0.00 in0.0 mm 0.00 in0.0 mm
07:09 AM 77.7°F25.4°C 69.7°F20.9°C 57% Calm Calm -- 30.20 in1022.7 mb 0.00 in0.0 mm 0.00 in0.0 mm 0.00 in0.0 mm
07:12 AM 79.5°F26.4°C 69.6°F20.9°C 56% Calm Calm -- 30.20 in1022.7 mb 0.00 in0.0 mm 0.00 in0.0 mm 0.00 in0.0 mm
07:15 AM 79.4°F26.3°C 70.4°F21.3°C 57% Calm Calm -- 30.20 in1022.7 mb 0.00 in0.0 mm 0.00 in0.0 mm 0.00 in0.0 mm
07:18 AM 79.9°F26.6°C 70.2°F21.2°C 56% Calm Calm -- 30.20 in1022.7 mb 0.00 in0.0 mm 0.00 in0.0 mm 0.00 in0.0 mm
07:21 AM 80.0°F26.7°C 70.2°F21.2°C 56% Calm Calm -- 30.20 in1022.7 mb 0.00 in0.0 mm 0.00 in0.0 mm 0.00 in0.0 mm
07:24 AM 79.8°F26.6°C 69.7°F20.9°C 55% Calm Calm -- 30.20 in1022.7 mb 0.00 in0.0 mm 0.00 in0.0 mm 0.00 in0.0 mm
07:27 AM 80.3°F26.8°C 69.6°F20.9°C 55% Calm Calm -- 30.20 in1022.7 mb 0.00 in0.0 mm 0.00 in0.0 mm 0.00 in0.0 mm
07:30 AM 80.2°F26.8°C 69.4°F20.8°C 54% Calm Calm -- 30.20 in1022.7 mb 0.00 in0.0 mm 0.00 in0.0 mm 0.00 in0.0 mm
07:33 AM 80.8°F27.1°C 69.4°F20.8°C 54% Calm Calm -- 30.20 in1022.7 mb 0.00 in0.0 mm 0.00 in0.0 mm 0.00 in0.0 mm
07:36 AM 80.4°F26.9°C 70.0°F21.1°C 54% 1.2 mph SW1.9 kmh SW 1.2 mph1.9 kmh 30.20 in1022.7 mb 0.00 in0.0 mm 0.00 in0.0 mm 0.00 in0.0 mm
07:39 AM 80.2°F26.8°C 68.4°F20.2°C 53% Calm Calm -- 30.20 in1022.7 mb 0.00 in0.0 mm 0.00 in0.0 mm 0.00 in0.0 mm
07:42 AM 80.8°F27.1°C 69.4°F20.8°C 54% 0.8 mph SW1.3 kmh SW 0.8 mph1.3 kmh 30.21 in1023.0 mb 0.00 in0.0 mm 0.00 in0.0 mm 0.00 in0.0 mm
07:45 AM 81.1°F27.3°C 69.9°F21.1°C 55% Calm Calm -- 30.21 in1023.0 mb 0.00 in0.0 mm 0.00 in0.0 mm 0.00 in0.0 mm
07:48 AM 81.2°F27.3°C 70.0°F21.1°C 55% Calm Calm -- 30.21 in1023.0 mb 0.00 in0.0 mm 0.00 in0.0 mm 0.00 in0.0 mm
07:51 AM 80.0°F26.7°C 68.7°F20.4°C 54% 0.4 mph SW0.6 kmh SW 0.4 mph0.6 kmh 30.21 in1023.0 mb 0.00 in0.0 mm 0.00 in0.0 mm 0.00 in0.0 mm
07:54 AM 79.3°F26.3°C 68.8°F20.4°C 54% Calm Calm -- 30.21 in1023.0 mb 0.00 in0.0 mm 0.00 in0.0 mm 0.00 in0.0 mm
07:57 AM 80.6°F27.0°C 69.3°F20.7°C 55% Calm Calm -- 30.22 in1023.4 mb 0.00 in0.0 mm 0.00 in0.0 mm 0.00 in0.0 mm
08:00 AM 80.5°F26.9°C 69.0°F20.6°C 55% 1.2 mph SE1.9 kmh SE 1.2 mph1.9 kmh 30.22 in1023.4 mb 0.00 in0.0 mm 0.00 in0.0 mm 0.00 in0.0 mm
08:03 AM 80.4°F26.9°C 68.4°F20.2°C 55% 1.2 mph SE1.9 kmh SE 1.2 mph1.9 kmh 30.22 in1023.4 mb 0.00 in0.0 mm 0.00 in0.0 mm 0.00 in0.0 mm
08:06 AM 79.5°F26.4°C 69.8°F21.0°C 57% Calm Calm -- 30.22 in1023.4 mb 0.00 in0.0 mm 0.00 in0.0 mm 0.00 in0.0 mm
08:09 AM 80.4°F26.9°C 69.6°F20.9°C 56% 0.8 mph NNW1.3 kmh NNW 0.8 mph1.3 kmh 30.22 in1023.4 mb 0.00 in0.0 mm 0.00 in0.0 mm 0.00 in0.0 mm
08:12 AM 80.3°F26.8°C 69.2°F20.7°C 55% Calm Calm -- 30.22 in1023.4 mb 0.00 in0.0 mm 0.00 in0.0 mm 0.00 in0.0 mm
08:18 AM 80.5°F26.9°C 68.9°F20.5°C 55% Calm Calm -- 30.22 in1023.4 mb 0.00 in0.0 mm 0.00 in0.0 mm 0.00 in0.0 mm
08:21 AM 80.6°F27.0°C 68.2°F20.1°C 55% 1.2 mph NNW1.9 kmh NNW 1.2 mph1.9 kmh 30.22 in1023.4 mb 0.00 in0.0 mm 0.00 in0.0 mm 0.00 in0.0 mm
08:24 AM 79.7°F26.5°C 68.9°F20.5°C 55% 0.4 mph SE0.6 kmh SE 0.4 mph0.6 kmh 30.22 in1023.4 mb 0.00 in0.0 mm 0.00 in0.0 mm 0.00 in0.0 mm
08:27 AM 79.3°F26.3°C 68.8°F20.4°C 55% 0.4 mph SSW0.6 kmh SSW 0.4 mph0.6 kmh 30.22 in1023.4 mb 0.00 in0.0 mm 0.00 in0.0 mm 0.00 in0.0 mm
08:30 AM 79.7°F26.5°C 69.1°F20.6°C 56% Calm Calm -- 30.22 in1023.4 mb 0.00 in0.0 mm 0.00 in0.0 mm 0.00 in0.0 mm
08:33 AM 80.5°F26.9°C 68.5°F20.3°C 55% Calm Calm -- 30.22 in1023.4 mb 0.00 in0.0 mm 0.00 in0.0 mm 0.00 in0.0 mm
08:36 AM 80.6°F27.0°C 69.1°F20.6°C 55% 0.8 mph NNW1.3 kmh NNW 0.8 mph1.3 kmh 30.22 in1023.4 mb 0.00 in0.0 mm 0.00 in0.0 mm 0.00 in0.0 mm
08:39 AM 80.7°F27.1°C 68.8°F20.4°C 55% Calm Calm -- 30.22 in1023.4 mb 0.00 in0.0 mm 0.00 in0.0 mm 0.00 in0.0 mm
08:42 AM 79.9°F26.6°C 70.1°F21.2°C 58% Calm Calm -- 30.22 in1023.4 mb 0.00 in0.0 mm 0.00 in0.0 mm 0.00 in0.0 mm
08:48 AM 81.3°F27.4°C 69.6°F20.9°C 56% 0.8 mph NNW1.3 kmh NNW 0.8 mph1.3 kmh 30.22 in1023.4 mb 0.00 in0.0 mm 0.00 in0.0 mm 0.00 in0.0 mm
08:51 AM 81.2°F27.3°C 69.8°F21.0°C 56% 1.6 mph NNW2.6 kmh NNW 1.6 mph2.6 kmh 30.22 in1023.4 mb 0.00 in0.0 mm 0.00 in0.0 mm 0.00 in0.0 mm
08:57 AM 80.8°F27.1°C 70.5°F21.4°C 58% Calm Calm -- 30.22 in1023.4 mb 0.00 in0.0 mm 0.00 in0.0 mm 0.00 in0.0 mm
09:00 AM 81.3°F27.4°C 71.1°F21.7°C 58% Calm Calm -- 30.22 in1023.4 mb 0.00 in0.0 mm 0.00 in0.0 mm 0.00 in0.0 mm
09:03 AM 80.9°F27.2°C 70.4°F21.3°C 58% 1.2 mph SW1.9 kmh SW 1.2 mph1.9 kmh 30.22 in1023.4 mb 0.00 in0.0 mm 0.00 in0.0 mm 0.00 in0.0 mm
09:06 AM 80.5°F26.9°C 70.6°F21.4°C 58% 4.0 mph WSW6.4 kmh WSW 4.0 mph6.4 kmh 30.22 in1023.4 mb 0.00 in0.0 mm 0.00 in0.0 mm 0.00 in0.0 mm
09:12 AM 80.6°F27.0°C 70.6°F21.4°C 58% 2.8 mph WSW4.5 kmh WSW 2.8 mph4.5 kmh 30.22 in1023.4 mb 0.00 in0.0 mm 0.00 in0.0 mm 0.00 in0.0 mm
09:15 AM 80.6°F27.0°C 70.7°F21.5°C 59% 2.0 mph SW3.2 kmh SW 2.0 mph3.2 kmh 30.22 in1023.4 mb 0.00 in0.0 mm 0.00 in0.0 mm 0.00 in0.0 mm
09:18 AM 81.2°F27.3°C 71.3°F21.8°C 60% 2.4 mph NNW3.9 kmh NNW 2.4 mph3.9 kmh 30.22 in1023.4 mb 0.00 in0.0 mm 0.00 in0.0 mm 0.00 in0.0 mm
09:21 AM 81.3°F27.4°C 71.5°F21.9°C 59% 2.0 mph NNW3.2 kmh NNW 2.0 mph3.2 kmh 30.22 in1023.4 mb 0.00 in0.0 mm 0.00 in0.0 mm 0.00 in0.0 mm
09:27 AM 81.4°F27.4°C 71.2°F21.8°C 60% 2.0 mph NNW3.2 kmh NNW 2.0 mph3.2 kmh 30.22 in1023.4 mb 0.00 in0.0 mm 0.00 in0.0 mm 0.00 in0.0 mm
09:30 AM 81.8°F27.7°C 71.0°F21.7°C 58% Calm Calm -- 30.22 in1023.4 mb 0.00 in0.0 mm 0.00 in0.0 mm 0.00 in0.0 mm
09:33 AM 82.2°F27.9°C 71.4°F21.9°C 58% 2.8 mph SW4.5 kmh SW 2.8 mph4.5 kmh 30.22 in1023.4 mb 0.00 in0.0 mm 0.00 in0.0 mm 0.00 in0.0 mm
09:36 AM 82.1°F27.8°C 71.3°F21.8°C 59% 2.0 mph SSW3.2 kmh SSW 2.0 mph3.2 kmh 30.22 in1023.4 mb 0.00 in0.0 mm 0.00 in0.0 mm 0.00 in0.0 mm
09:39 AM 82.3°F27.9°C 72.2°F22.3°C 60% 1.6 mph SW2.6 kmh SW 1.6 mph2.6 kmh 30.22 in1023.4 mb 0.00 in0.0 mm 0.00 in0.0 mm 0.00 in0.0 mm
09:42 AM 82.6°F28.1°C 72.7°F22.6°C 60% 2.8 mph WSW4.5 kmh WSW 2.8 mph4.5 kmh 30.22 in1023.4 mb 0.00 in0.0 mm 0.00 in0.0 mm 0.00 in0.0 mm
09:45 AM 83.9°F28.8°C 71.4°F21.9°C 58% 3.2 mph SW5.1 kmh SW 3.2 mph5.1 kmh 30.22 in1023.4 mb 0.00 in0.0 mm 0.00 in0.0 mm 0.00 in0.0 mm
09:48 AM 84.4°F29.1°C 71.4°F21.9°C 58% Calm Calm -- 30.22 in1023.4 mb 0.00 in0.0 mm 0.00 in0.0 mm 0.00 in0.0 mm
09:54 AM 84.4°F29.1°C 70.8°F21.6°C 57% 0.4 mph NNW0.6 kmh NNW 0.4 mph0.6 kmh 30.23 in1023.7 mb 0.00 in0.0 mm 0.00 in0.0 mm 0.00 in0.0 mm
09:57 AM 85.0°F29.4°C 73.0°F22.8°C 58% 0.8 mph SSE1.3 kmh SSE 0.8 mph1.3 kmh 30.23 in1023.7 mb 0.00 in0.0 mm 0.00 in0.0 mm 0.00 in0.0 mm
10:00 AM 85.3°F29.6°C 72.5°F22.5°C 58% 1.6 mph SW2.6 kmh SW 1.6 mph2.6 kmh 30.23 in1023.7 mb 0.00 in0.0 mm 0.00 in0.0 mm 0.00 in0.0 mm
10:03 AM 86.7°F30.4°C 72.6°F22.6°C 57% Calm Calm -- 30.22 in1023.4 mb 0.00 in0.0 mm 0.00 in0.0 mm 0.00 in0.0 mm
10:06 AM 85.4°F29.7°C 74.0°F23.3°C 58% 4.0 mph WSW6.4 kmh WSW 4.1 mph6.6 kmh 30.22 in1023.4 mb 0.00 in0.0 mm 0.00 in0.0 mm 0.00 in0.0 mm
10:09 AM 85.6°F29.8°C 73.9°F23.3°C 57% 3.6 mph WSW5.8 kmh WSW 3.7 mph6.0 kmh 30.22 in1023.4 mb 0.00 in0.0 mm 0.00 in0.0 mm 0.00 in0.0 mm
10:12 AM 85.6°F29.8°C 73.8°F23.2°C 57% 0.8 mph WSW1.3 kmh WSW 0.8 mph1.3 kmh 30.22 in1023.4 mb 0.00 in0.0 mm 0.00 in0.0 mm 0.00 in0.0 mm
10:15 AM 86.0°F30.0°C 73.9°F23.3°C 56% 1.6 mph SW2.6 kmh SW 1.6 mph2.6 kmh 30.23 in1023.7 mb 0.00 in0.0 mm 0.00 in0.0 mm 0.00 in0.0 mm
10:18 AM 85.4°F29.7°C 74.4°F23.6°C 55% 3.2 mph NNW5.1 kmh NNW 3.2 mph5.1 kmh 30.22 in1023.4 mb 0.00 in0.0 mm 0.00 in0.0 mm 0.00 in0.0 mm
10:21 AM 87.0°F30.6°C 73.7°F23.2°C 54% 2.4 mph WNW3.9 kmh WNW 2.4 mph3.9 kmh 30.22 in1023.4 mb 0.00 in0.0 mm 0.00 in0.0 mm 0.00 in0.0 mm
10:24 AM 86.7°F30.4°C 74.2°F23.4°C 55% 2.4 mph WSW3.9 kmh WSW 2.4 mph3.9 kmh 30.23 in1023.7 mb 0.00 in0.0 mm 0.00 in0.0 mm 0.00 in0.0 mm
10:27 AM 87.4°F30.8°C 74.1°F23.4°C 53% 2.4 mph WNW3.9 kmh WNW 2.4 mph3.9 kmh 30.22 in1023.4 mb 0.00 in0.0 mm 0.00 in0.0 mm 0.00 in0.0 mm
10:30 AM 87.9°F31.1°C 75.2°F24.0°C 53% 2.4 mph SW3.9 kmh SW 2.5 mph4.0 kmh 30.22 in1023.4 mb 0.00 in0.0 mm 0.00 in0.0 mm 0.00 in0.0 mm
10:33 AM 87.7°F30.9°C 74.5°F23.6°C 52% 1.2 mph SSW1.9 kmh SSW 1.2 mph1.9 kmh 30.22 in1023.4 mb 0.00 in0.0 mm 0.00 in0.0 mm 0.00 in0.0 mm
10:36 AM 87.5°F30.8°C 73.0°F22.8°C 50% 0.8 mph ESE1.3 kmh ESE 0.8 mph1.3 kmh 30.22 in1023.4 mb 0.00 in0.0 mm 0.00 in0.0 mm 0.00 in0.0 mm
10:39 AM 87.1°F30.6°C 75.9°F24.4°C 53% 3.8 mph SW6.1 kmh SW 3.9 mph6.3 kmh 30.22 in1023.4 mb 0.00 in0.0 mm 0.00 in0.0 mm 0.00 in0.0 mm
10:45 AM 87.9°F31.1°C 74.5°F23.6°C 50% 0.8 mph NNW1.3 kmh NNW 0.8 mph1.3 kmh 30.22 in1023.4 mb 0.00 in0.0 mm 0.00 in0.0 mm 0.00 in0.0 mm
10:48 AM 88.1°F31.2°C 74.3°F23.5°C 49% 0.4 mph NNW0.6 kmh NNW 0.4 mph0.6 kmh 30.22 in1023.4 mb 0.00 in0.0 mm 0.00 in0.0 mm 0.00 in0.0 mm
10:51 AM 88.6°F31.4°C 76.3°F24.6°C 51% 1.5 mph NNW2.4 kmh NNW 1.6 mph2.6 kmh 30.22 in1023.4 mb 0.00 in0.0 mm 0.00 in0.0 mm 0.00 in0.0 mm
10:54 AM 88.6°F31.4°C 76.3°F24.6°C 51% 1.2 mph WSW1.9 kmh WSW 1.2 mph1.9 kmh 30.22 in1023.4 mb 0.00 in0.0 mm 0.00 in0.0 mm 0.00 in0.0 mm
10:57 AM 88.4°F31.3°C 75.0°F23.9°C 49% Calm Calm -- 30.22 in1023.4 mb 0.00 in0.0 mm 0.00 in0.0 mm 0.00 in0.0 mm
11:00 AM 89.0°F31.7°C 76.5°F24.7°C 49% 0.8 mph NNW1.3 kmh NNW 0.8 mph1.3 kmh 30.22 in1023.4 mb 0.00 in0.0 mm 0.00 in0.0 mm 0.00 in0.0 mm
11:03 AM 88.7°F31.5°C 74.5°F23.6°C 47% Calm Calm -- 30.22 in1023.4 mb 0.00 in0.0 mm 0.00 in0.0 mm 0.00 in0.0 mm
11:09 AM 89.0°F31.7°C 75.5°F24.2°C 48% 1.2 mph WSW1.9 kmh WSW 1.2 mph1.9 kmh 30.22 in1023.4 mb 0.00 in0.0 mm 0.00 in0.0 mm 0.00 in0.0 mm
11:12 AM 89.8°F32.1°C 76.6°F24.8°C 48% 1.6 mph SW2.6 kmh SW 1.6 mph2.6 kmh 30.22 in1023.4 mb 0.00 in0.0 mm 0.00 in0.0 mm 0.00 in0.0 mm
11:15 AM 89.0°F31.7°C 75.5°F24.2°C 46% 2.0 mph SW3.2 kmh SW 2.0 mph3.2 kmh 30.22 in1023.4 mb 0.00 in0.0 mm 0.00 in0.0 mm 0.00 in0.0 mm
11:18 AM 89.6°F32.0°C 76.9°F24.9°C 48% 2.8 mph NNW4.5 kmh NNW 2.9 mph4.7 kmh 30.22 in1023.4 mb 0.00 in0.0 mm 0.00 in0.0 mm 0.00 in0.0 mm
11:24 AM 90.4°F32.4°C 74.1°F23.4°C 43% 2.4 mph NNW3.9 kmh NNW 2.4 mph3.9 kmh 30.22 in1023.4 mb 0.00 in0.0 mm 0.00 in0.0 mm 0.00 in0.0 mm
11:27 AM 90.1°F32.3°C 74.6°F23.7°C 43% 2.0 mph NNW3.2 kmh NNW 2.0 mph3.2 kmh 30.22 in1023.4 mb 0.00 in0.0 mm 0.00 in0.0 mm 0.00 in0.0 mm
11:30 AM 90.2°F32.3°C 73.3°F22.9°C 42% 1.2 mph NNE1.9 kmh NNE 1.2 mph1.9 kmh 30.22 in1023.4 mb 0.00 in0.0 mm 0.00 in0.0 mm 0.00 in0.0 mm
11:33 AM 91.2°F32.9°C 76.9°F24.9°C 45% 4.0 mph WSW6.4 kmh WSW 4.1 mph6.6 kmh 30.22 in1023.4 mb 0.00 in0.0 mm 0.00 in0.0 mm 0.00 in0.0 mm
11:36 AM 91.1°F32.8°C 76.2°F24.6°C 44% 4.0 mph SSW6.4 kmh SSW 4.0 mph6.4 kmh 30.21 in1023.0 mb 0.00 in0.0 mm 0.00 in0.0 mm 0.00 in0.0 mm
11:39 AM 91.5°F33.1°C 76.3°F24.6°C 44% 2.0 mph NNW3.2 kmh NNW 2.0 mph3.2 kmh 30.22 in1023.4 mb 0.00 in0.0 mm 0.00 in0.0 mm 0.00 in0.0 mm
11:42 AM 91.2°F32.9°C 76.0°F24.4°C 43% 3.6 mph WSW5.8 kmh WSW 3.7 mph6.0 kmh 30.22 in1023.4 mb 0.00 in0.0 mm 0.00 in0.0 mm 0.00 in0.0 mm
11:45 AM 91.7°F33.2°C 74.2°F23.4°C 40% 4.4 mph NW7.1 kmh NW 4.4 mph7.1 kmh 30.22 in1023.4 mb 0.00 in0.0 mm 0.00 in0.0 mm 0.00 in0.0 mm
11:48 AM 91.1°F32.8°C 73.3°F22.9°C 39% 4.4 mph 7.1 kmh 4.5 mph7.2 kmh 30.22 in1023.4 mb 0.00 in0.0 mm 0.00 in0.0 mm 0.00 in0.0 mm
11:51 AM 90.7°F32.6°C 72.7°F22.6°C 39% 4.1 mph NNE6.6 kmh NNE 4.1 mph6.6 kmh 30.21 in1023.0 mb 0.00 in0.0 mm 0.00 in0.0 mm 0.00 in0.0 mm
11:54 AM 91.7°F33.2°C 73.9°F23.3°C 40% Calm Calm -- 30.21 in1023.0 mb 0.00 in0.0 mm 0.00 in0.0 mm 0.00 in0.0 mm
11:57 AM 92.0°F33.3°C 73.3°F22.9°C 39% 1.6 mph WSW2.6 kmh WSW 1.6 mph2.6 kmh 30.21 in1023.0 mb 0.00 in0.0 mm 0.00 in0.0 mm 0.00 in0.0 mm
12:00 PM 92.1°F33.4°C 74.0°F23.3°C 39% 4.0 mph WSW6.4 kmh WSW 4.1 mph6.6 kmh 30.21 in1023.0 mb 0.00 in0.0 mm 0.00 in0.0 mm 0.00 in0.0 mm
12:06 PM 93.1°F33.9°C 74.7°F23.7°C 39% 3.2 mph NW5.1 kmh NW 3.2 mph5.1 kmh 30.21 in1023.0 mb 0.00 in0.0 mm 0.00 in0.0 mm 0.00 in0.0 mm
12:09 PM 92.6°F33.7°C 74.7°F23.7°C 39% 1.6 mph W2.6 kmh W 1.6 mph2.6 kmh 30.21 in1023.0 mb 0.00 in0.0 mm 0.00 in0.0 mm 0.00 in0.0 mm
12:12 PM 92.9°F33.8°C 75.0°F23.9°C 39% 3.6 mph WNW5.8 kmh WNW 3.6 mph5.8 kmh 30.21 in1023.0 mb 0.00 in0.0 mm 0.00 in0.0 mm 0.00 in0.0 mm
12:18 PM 92.0°F33.3°C 72.9°F22.7°C 37% 4.7 mph NNW7.6 kmh NNW 4.7 mph7.6 kmh 30.20 in1022.7 mb 0.00 in0.0 mm 0.00 in0.0 mm 0.00 in0.0 mm
12:21 PM 92.9°F33.8°C 74.1°F23.4°C 38% 4.9 mph W7.9 kmh W 4.9 mph7.9 kmh 30.20 in1022.7 mb 0.00 in0.0 mm 0.00 in0.0 mm 0.00 in0.0 mm
12:24 PM 92.2°F33.4°C 72.8°F22.7°C 36% 2.0 mph NW3.2 kmh NW 2.0 mph3.2 kmh 30.20 in1022.7 mb 0.00 in0.0 mm 0.00 in0.0 mm 0.00 in0.0 mm
12:27 PM 92.5°F33.6°C 73.6°F23.1°C 37% 2.8 mph NNW4.5 kmh NNW 2.8 mph4.5 kmh 30.20 in1022.7 mb 0.00 in0.0 mm 0.00 in0.0 mm 0.00 in0.0 mm
12:30 PM 92.3°F33.5°C 72.7°F22.6°C 36% 5.6 mph 9.0 kmh 5.6 mph9.0 kmh 30.20 in1022.7 mb 0.00 in0.0 mm 0.00 in0.0 mm 0.00 in0.0 mm
12:39 PM 93.2°F34.0°C 72.4°F22.4°C 35% 3.6 mph NW5.8 kmh NW 3.7 mph6.0 kmh 30.20 in1022.7 mb 0.00 in0.0 mm 0.00 in0.0 mm 0.00 in0.0 mm
12:42 PM 93.1°F33.9°C 73.9°F23.3°C 37% 5.6 mph WSW9.0 kmh WSW 5.6 mph9.0 kmh 30.20 in1022.7 mb 0.00 in0.0 mm 0.00 in0.0 mm 0.00 in0.0 mm
12:45 PM 93.9°F34.4°C 74.9°F23.8°C 38% 4.8 mph NNW7.7 kmh NNW 4.8 mph7.7 kmh 30.20 in1022.7 mb 0.00 in0.0 mm 0.00 in0.0 mm 0.00 in0.0 mm
12:48 PM 93.8°F34.3°C 74.1°F23.4°C 37% 3.2 mph NNW5.1 kmh NNW 3.2 mph5.1 kmh 30.20 in1022.7 mb 0.00 in0.0 mm 0.00 in0.0 mm 0.00 in0.0 mm
12:51 PM 93.5°F34.2°C 73.4°F23.0°C 36% 4.8 mph W7.7 kmh W 4.9 mph7.9 kmh 30.20 in1022.7 mb 0.00 in0.0 mm 0.00 in0.0 mm 0.00 in0.0 mm
12:54 PM 93.8°F34.3°C 72.5°F22.5°C 35% 4.0 mph NW6.4 kmh NW 4.0 mph6.4 kmh 30.20 in1022.7 mb 0.00 in0.0 mm 0.00 in0.0 mm 0.00 in0.0 mm
12:57 PM 93.5°F34.2°C 72.7°F22.6°C 35% 4.3 mph NNW6.9 kmh NNW 4.3 mph6.9 kmh 30.20 in1022.7 mb 0.00 in0.0 mm 0.00 in0.0 mm 0.00 in0.0 mm
01:00 PM 93.4°F34.1°C 72.8°F22.7°C 35% 4.6 mph NNW7.4 kmh NNW 4.6 mph7.4 kmh 30.20 in1022.7 mb 0.00 in0.0 mm 0.00 in0.0 mm 0.00 in0.0 mm
01:03 PM 94.0°F34.4°C 73.2°F22.9°C 35% 4.3 mph NW6.9 kmh NW 4.4 mph7.1 kmh 30.20 in1022.7 mb 0.00 in0.0 mm 0.00 in0.0 mm 0.00 in0.0 mm
01:09 PM 94.2°F34.6°C 74.1°F23.4°C 36% 4.0 mph NNW6.4 kmh NNW 4.0 mph6.4 kmh 30.20 in1022.7 mb 0.00 in0.0 mm 0.00 in0.0 mm 0.00 in0.0 mm
01:12 PM 94.6°F34.8°C 73.8°F23.2°C 35% 7.1 mph NNW11.4 kmh NNW 7.2 mph11.6 kmh 30.20 in1022.7 mb 0.00 in0.0 mm 0.00 in0.0 mm 0.00 in0.0 mm
01:15 PM 94.2°F34.6°C 73.7°F23.2°C 35% 4.4 mph WSW7.1 kmh WSW 4.4 mph7.1 kmh 30.20 in1022.7 mb 0.00 in0.0 mm 0.00 in0.0 mm 0.00 in0.0 mm
01:18 PM 94.1°F34.5°C 74.2°F23.4°C 36% 6.6 mph SW10.6 kmh SW 6.6 mph10.6 kmh 30.20 in1022.7 mb 0.00 in0.0 mm 0.00 in0.0 mm 0.00 in0.0 mm
01:21 PM 93.7°F34.3°C 73.2°F22.9°C 35% 2.8 mph WNW4.5 kmh WNW 2.9 mph4.7 kmh 30.20 in1022.7 mb 0.00 in0.0 mm 0.00 in0.0 mm 0.00 in0.0 mm
01:24 PM 94.3°F34.6°C 72.7°F22.6°C 34% 4.0 mph NNW6.4 kmh NNW 4.1 mph6.6 kmh 30.20 in1022.7 mb 0.00 in0.0 mm 0.00 in0.0 mm 0.00 in0.0 mm
01:27 PM 94.4°F34.7°C 73.3°F22.9°C 35% 4.5 mph WSW7.2 kmh WSW 4.5 mph7.2 kmh 30.20 in1022.7 mb 0.00 in0.0 mm 0.00 in0.0 mm 0.00 in0.0 mm
01:30 PM 94.3°F34.6°C 73.1°F22.8°C 35% 2.8 mph WNW4.5 kmh WNW 2.9 mph4.7 kmh 30.20 in1022.7 mb 0.00 in0.0 mm 0.00 in0.0 mm 0.00 in0.0 mm
01:33 PM 94.2°F34.6°C 72.5°F22.5°C 34% 6.1 mph NNW9.8 kmh NNW 6.1 mph9.8 kmh 30.20 in1022.7 mb 0.00 in0.0 mm 0.00 in0.0 mm 0.00 in0.0 mm
01:36 PM 94.2°F34.6°C 72.6°F22.6°C 34% 3.2 mph WNW5.1 kmh WNW 3.3 mph5.3 kmh 30.20 in1022.7 mb 0.00 in0.0 mm 0.00 in0.0 mm 0.00 in0.0 mm
01:39 PM 94.0°F34.4°C 72.4°F22.4°C 34% 3.6 mph NNW5.8 kmh NNW 3.6 mph5.8 kmh 30.20 in1022.7 mb 0.00 in0.0 mm 0.00 in0.0 mm 0.00 in0.0 mm
01:45 PM 93.9°F34.4°C 73.6°F23.1°C 35% 3.6 mph WSW5.8 kmh WSW 3.7 mph6.0 kmh 30.20 in1022.7 mb 0.00 in0.0 mm 0.00 in0.0 mm 0.00 in0.0 mm
01:48 PM 94.8°F34.9°C 73.1°F22.8°C 34% 6.4 mph NNW10.3 kmh NNW 6.4 mph10.3 kmh 30.19 in1022.4 mb 0.00 in0.0 mm 0.00 in0.0 mm 0.00 in0.0 mm
01:51 PM 94.4°F34.7°C 71.8°F22.1°C 33% 8.1 mph NNW13.0 kmh NNW 8.1 mph13.0 kmh 30.20 in1022.7 mb 0.00 in0.0 mm 0.00 in0.0 mm 0.00 in0.0 mm
01:54 PM 94.2°F34.6°C 72.9°F22.7°C 34% 5.3 mph NNW8.5 kmh NNW 5.3 mph8.5 kmh 30.20 in1022.7 mb 0.00 in0.0 mm 0.00 in0.0 mm 0.00 in0.0 mm
01:57 PM 94.6°F34.8°C 71.7°F22.1°C 33% 4.8 mph NNW7.7 kmh NNW 4.8 mph7.7 kmh 30.20 in1022.7 mb 0.00 in0.0 mm 0.00 in0.0 mm 0.00 in0.0 mm
02:00 PM 94.9°F34.9°C 71.9°F22.2°C 33% 2.8 mph 4.5 kmh 2.9 mph4.7 kmh 30.19 in1022.4 mb 0.00 in0.0 mm 0.00 in0.0 mm 0.00 in0.0 mm
02:03 PM 94.3°F34.6°C 72.5°F22.5°C 34% 1.9 mph W3.1 kmh W 2.0 mph3.2 kmh 30.19 in1022.4 mb 0.00 in0.0 mm 0.00 in0.0 mm 0.00 in0.0 mm
02:06 PM 94.8°F34.9°C 72.6°F22.6°C 34% 3.1 mph NNW5.0 kmh NNW 3.3 mph5.3 kmh 30.19 in1022.4 mb 0.00 in0.0 mm 0.00 in0.0 mm 0.00 in0.0 mm
02:09 PM 95.6°F35.3°C 73.2°F22.9°C 34% 3.9 mph NW6.3 kmh NW 3.9 mph6.3 kmh 30.20 in1022.7 mb 0.00 in0.0 mm 0.00 in0.0 mm 0.00 in0.0 mm
02:12 PM 95.0°F35.0°C 72.7°F22.6°C 34% 3.2 mph NNW5.1 kmh NNW 3.2 mph5.1 kmh 30.19 in1022.4 mb 0.00 in0.0 mm 0.00 in0.0 mm 0.00 in0.0 mm
02:15 PM 94.9°F34.9°C 74.0°F23.3°C 35% 2.7 mph SW4.3 kmh SW 2.7 mph4.3 kmh 30.19 in1022.4 mb 0.00 in0.0 mm 0.00 in0.0 mm 0.00 in0.0 mm
02:18 PM 95.2°F35.1°C 73.5°F23.1°C 34% 2.7 mph W4.3 kmh W 2.9 mph4.7 kmh 30.19 in1022.4 mb 0.00 in0.0 mm 0.00 in0.0 mm 0.00 in0.0 mm
02:21 PM 94.8°F34.9°C 71.8°F22.1°C 33% 3.8 mph NNW6.1 kmh NNW 3.8 mph6.1 kmh 30.19 in1022.4 mb 0.00 in0.0 mm 0.00 in0.0 mm 0.00 in0.0 mm
02:24 PM 95.3°F35.2°C 71.6°F22.0°C 32% 5.2 mph W8.4 kmh W 5.2 mph8.4 kmh 30.19 in1022.4 mb 0.00 in0.0 mm 0.00 in0.0 mm 0.00 in0.0 mm
02:30 PM 95.3°F35.2°C 73.4°F23.0°C 34% 3.2 mph WSW5.1 kmh WSW 3.2 mph5.1 kmh 30.19 in1022.4 mb 0.00 in0.0 mm 0.00 in0.0 mm 0.00 in0.0 mm
02:36 PM 94.1°F34.5°C 72.5°F22.5°C 33% 2.4 mph SW3.9 kmh SW 2.5 mph4.0 kmh 30.18 in1022.0 mb 0.00 in0.0 mm 0.00 in0.0 mm 0.00 in0.0 mm
02:39 PM 94.9°F34.9°C 72.8°F22.7°C 34% 4.4 mph NW7.1 kmh NW 4.4 mph7.1 kmh 30.18 in1022.0 mb 0.00 in0.0 mm 0.00 in0.0 mm 0.00 in0.0 mm
02:42 PM 95.7°F35.4°C 71.9°F22.2°C 33% 4.9 mph 7.9 kmh 4.9 mph7.9 kmh 30.19 in1022.4 mb 0.00 in0.0 mm 0.00 in0.0 mm 0.00 in0.0 mm
02:45 PM 95.3°F35.2°C 72.5°F22.5°C 33% 3.6 mph NNW5.8 kmh NNW 3.7 mph6.0 kmh 30.18 in1022.0 mb 0.00 in0.0 mm 0.00 in0.0 mm 0.00 in0.0 mm
02:48 PM 95.5°F35.3°C 71.6°F22.0°C 32% 1.6 mph WSW2.6 kmh WSW 1.6 mph2.6 kmh 30.18 in1022.0 mb 0.00 in0.0 mm 0.00 in0.0 mm 0.00 in0.0 mm
02:51 PM 96.1°F35.6°C 70.9°F21.6°C 31% 3.6 mph NW5.8 kmh NW 3.6 mph5.8 kmh 30.18 in1022.0 mb 0.00 in0.0 mm 0.00 in0.0 mm 0.00 in0.0 mm
02:54 PM 96.1°F35.6°C 70.4°F21.3°C 31% 2.8 mph WNW4.5 kmh WNW 2.9 mph4.7 kmh 30.18 in1022.0 mb 0.00 in0.0 mm 0.00 in0.0 mm 0.00 in0.0 mm
02:57 PM 96.1°F35.6°C 71.3°F21.8°C 32% 5.4 mph WSW8.7 kmh WSW 5.5 mph8.9 kmh 30.18 in1022.0 mb 0.00 in0.0 mm 0.00 in0.0 mm 0.00 in0.0 mm
03:00 PM 94.4°F34.7°C 70.4°F21.3°C 31% 1.2 mph NW1.9 kmh NW 1.2 mph1.9 kmh 30.18 in1022.0 mb 0.00 in0.0 mm 0.00 in0.0 mm 0.00 in0.0 mm
03:03 PM 96.5°F35.8°C 70.8°F21.6°C 31% 4.1 mph NNW6.6 kmh NNW 4.1 mph6.6 kmh 30.18 in1022.0 mb 0.00 in0.0 mm 0.00 in0.0 mm 0.00 in0.0 mm
03:09 PM 96.4°F35.8°C 71.2°F21.8°C 31% 4.4 mph NNW7.1 kmh NNW 4.5 mph7.2 kmh 30.18 in1022.0 mb 0.00 in0.0 mm 0.00 in0.0 mm 0.00 in0.0 mm
03:12 PM 96.7°F35.9°C 70.8°F21.6°C 31% 3.2 mph NNW5.1 kmh NNW 3.2 mph5.1 kmh 30.18 in1022.0 mb 0.00 in0.0 mm 0.00 in0.0 mm 0.00 in0.0 mm
03:15 PM 96.5°F35.8°C 70.3°F21.3°C 31% 3.2 mph WNW5.1 kmh WNW 3.3 mph5.3 kmh 30.18 in1022.0 mb 0.00 in0.0 mm 0.00 in0.0 mm 0.00 in0.0 mm
03:21 PM 96.0°F35.6°C 69.9°F21.1°C 30% 1.9 mph W3.1 kmh W 2.0 mph3.2 kmh 30.18 in1022.0 mb 0.00 in0.0 mm 0.00 in0.0 mm 0.00 in0.0 mm
03:24 PM 96.2°F35.7°C 70.6°F21.4°C 31% 6.8 mph NW10.9 kmh NW 6.9 mph11.1 kmh 30.18 in1022.0 mb 0.00 in0.0 mm 0.00 in0.0 mm 0.00 in0.0 mm
03:27 PM 96.7°F35.9°C 68.9°F20.5°C 30% 6.1 mph NW9.8 kmh NW 6.1 mph9.8 kmh 30.18 in1022.0 mb 0.00 in0.0 mm 0.00 in0.0 mm 0.00 in0.0 mm
03:30 PM 96.8°F36.0°C 69.7°F20.9°C 30% 3.5 mph NNW5.6 kmh NNW 3.5 mph5.6 kmh 30.18 in1022.0 mb 0.00 in0.0 mm 0.00 in0.0 mm 0.00 in0.0 mm
03:33 PM 96.7°F35.9°C 69.1°F20.6°C 30% 1.5 mph W2.4 kmh W 1.5 mph2.4 kmh 30.18 in1022.0 mb 0.00 in0.0 mm 0.00 in0.0 mm 0.00 in0.0 mm
03:39 PM 97.1°F36.2°C 71.1°F21.7°C 32% 6.2 mph NNW10.0 kmh NNW 6.2 mph10.0 kmh 30.18 in1022.0 mb 0.00 in0.0 mm 0.00 in0.0 mm 0.00 in0.0 mm
03:42 PM 97.4°F36.3°C 70.2°F21.2°C 31% 5.7 mph WNW9.2 kmh WNW 5.7 mph9.2 kmh 30.18 in1022.0 mb 0.00 in0.0 mm 0.00 in0.0 mm 0.00 in0.0 mm
03:45 PM 98.2°F36.8°C 69.3°F20.7°C 30% 4.4 mph W7.1 kmh W 4.4 mph7.1 kmh 30.18 in1022.0 mb 0.00 in0.0 mm 0.00 in0.0 mm 0.00 in0.0 mm
03:48 PM 98.9°F37.2°C 70.3°F21.3°C 31% 1.6 mph SW2.6 kmh SW 1.6 mph2.6 kmh 30.18 in1022.0 mb 0.00 in0.0 mm 0.00 in0.0 mm 0.00 in0.0 mm
03:51 PM 99.1°F37.3°C 69.5°F20.8°C 30% 2.8 mph NW4.5 kmh NW 2.8 mph4.5 kmh 30.18 in1022.0 mb 0.00 in0.0 mm 0.00 in0.0 mm 0.00 in0.0 mm
03:54 PM 99.5°F37.5°C 68.4°F20.2°C 29% 6.4 mph WNW10.3 kmh WNW 6.5 mph10.5 kmh 30.18 in1022.0 mb 0.00 in0.0 mm 0.00 in0.0 mm 0.00 in0.0 mm
03:57 PM 97.7°F36.5°C 69.3°F20.7°C 30% 3.6 mph NW5.8 kmh NW 3.7 mph6.0 kmh 30.18 in1022.0 mb 0.00 in0.0 mm 0.00 in0.0 mm 0.00 in0.0 mm
04:00 PM 99.5°F37.5°C 70.2°F21.2°C 31% 5.6 mph NW9.0 kmh NW 5.6 mph9.0 kmh 30.18 in1022.0 mb 0.00 in0.0 mm 0.00 in0.0 mm 0.00 in0.0 mm
04:03 PM 99.4°F37.4°C 70.1°F21.2°C 31% 2.0 mph SW3.2 kmh SW 2.0 mph3.2 kmh 30.18 in1022.0 mb 0.00 in0.0 mm 0.00 in0.0 mm 0.00 in0.0 mm
04:06 PM 100.2°F37.9°C 70.9°F21.6°C 32% 2.4 mph NW3.9 kmh NW 2.4 mph3.9 kmh 30.18 in1022.0 mb 0.00 in0.0 mm 0.00 in0.0 mm 0.00 in0.0 mm
04:09 PM 100.0°F37.8°C 69.8°F21.0°C 31% 3.2 mph NNW5.1 kmh NNW 3.2 mph5.1 kmh 30.18 in1022.0 mb 0.00 in0.0 mm 0.00 in0.0 mm 0.00 in0.0 mm
04:12 PM 99.1°F37.3°C 70.4°F21.3°C 31% 5.2 mph NW8.4 kmh NW 5.3 mph8.5 kmh 30.17 in1021.7 mb 0.00 in0.0 mm 0.00 in0.0 mm 0.00 in0.0 mm
04:18 PM 101.0°F38.3°C 70.6°F21.4°C 32% 1.6 mph 2.6 kmh 1.6 mph2.6 kmh 30.17 in1021.7 mb 0.00 in0.0 mm 0.00 in0.0 mm 0.00 in0.0 mm
04:21 PM 99.4°F37.4°C 71.6°F22.0°C 33% 4.0 mph NNW6.4 kmh NNW 4.0 mph6.4 kmh 30.17 in1021.7 mb 0.00 in0.0 mm 0.00 in0.0 mm 0.00 in0.0 mm
04:24 PM 100.1°F37.8°C 70.7°F21.5°C 32% 3.2 mph 5.1 kmh 3.2 mph5.1 kmh 30.17 in1021.7 mb 0.00 in0.0 mm 0.00 in0.0 mm 0.00 in0.0 mm
04:27 PM 99.7°F37.6°C 71.7°F22.1°C 33% 3.6 mph NNW5.8 kmh NNW 3.6 mph5.8 kmh 30.17 in1021.7 mb 0.00 in0.0 mm 0.00 in0.0 mm 0.00 in0.0 mm
04:30 PM 100.3°F37.9°C 70.9°F21.6°C 32% 4.8 mph NW7.7 kmh NW 4.8 mph7.7 kmh 30.17 in1021.7 mb 0.00 in0.0 mm 0.00 in0.0 mm 0.00 in0.0 mm
04:33 PM 99.2°F37.3°C 71.9°F22.2°C 34% 3.1 mph SW5.0 kmh SW 3.1 mph5.0 kmh 30.17 in1021.7 mb 0.00 in0.0 mm 0.00 in0.0 mm 0.00 in0.0 mm
04:36 PM 100.2°F37.9°C 71.2°F21.8°C 33% 2.7 mph W4.3 kmh W 2.7 mph4.3 kmh 30.16 in1021.3 mb 0.00 in0.0 mm 0.00 in0.0 mm 0.00 in0.0 mm
04:39 PM 101.1°F38.4°C 71.0°F21.7°C 33% 1.9 mph NNW3.1 kmh NNW 2.0 mph3.2 kmh 30.16 in1021.3 mb 0.00 in0.0 mm 0.00 in0.0 mm 0.00 in0.0 mm
04:42 PM 99.8°F37.7°C 70.9°F21.6°C 33% 4.6 mph NW7.4 kmh NW 4.9 mph7.9 kmh 30.17 in1021.7 mb 0.00 in0.0 mm 0.00 in0.0 mm 0.00 in0.0 mm
04:45 PM 99.7°F37.6°C 71.8°F22.1°C 33% 4.8 mph NW7.7 kmh NW 4.8 mph7.7 kmh 30.17 in1021.7 mb 0.00 in0.0 mm 0.00 in0.0 mm 0.00 in0.0 mm
04:48 PM 100.1°F37.8°C 70.9°F21.6°C 32% 3.6 mph 5.8 kmh 3.6 mph5.8 kmh 30.16 in1021.3 mb 0.00 in0.0 mm 0.00 in0.0 mm 0.00 in0.0 mm
04:51 PM 99.3°F37.4°C 71.3°F21.8°C 33% 3.6 mph NNW5.8 kmh NNW 3.6 mph5.8 kmh 30.16 in1021.3 mb 0.00 in0.0 mm 0.00 in0.0 mm 0.00 in0.0 mm
04:54 PM 100.7°F38.2°C 71.0°F21.7°C 33% 5.4 mph NW8.7 kmh NW 5.4 mph8.7 kmh 30.16 in1021.3 mb 0.00 in0.0 mm 0.00 in0.0 mm 0.00 in0.0 mm
04:57 PM 99.2°F37.3°C 70.8°F21.6°C 33% 1.6 mph NNW2.6 kmh NNW 1.6 mph2.6 kmh 30.16 in1021.3 mb 0.00 in0.0 mm 0.00 in0.0 mm 0.00 in0.0 mm
05:00 PM 99.3°F37.4°C 70.9°F21.6°C 33% 3.2 mph 5.1 kmh 3.3 mph5.3 kmh 30.16 in1021.3 mb 0.00 in0.0 mm 0.00 in0.0 mm 0.00 in0.0 mm
05:03 PM 98.5°F36.9°C 70.9°F21.6°C 33% 3.2 mph 5.1 kmh 3.3 mph5.3 kmh 30.16 in1021.3 mb 0.00 in0.0 mm 0.00 in0.0 mm 0.00 in0.0 mm
05:06 PM 98.4°F36.9°C 70.3°F21.3°C 33% 4.9 mph NW7.9 kmh NW 4.9 mph7.9 kmh 30.16 in1021.3 mb 0.00 in0.0 mm 0.00 in0.0 mm 0.00 in0.0 mm
05:09 PM 99.8°F37.7°C 70.4°F21.3°C 33% 3.6 mph SW5.8 kmh SW 3.7 mph6.0 kmh 30.16 in1021.3 mb 0.00 in0.0 mm 0.00 in0.0 mm 0.00 in0.0 mm
05:12 PM 98.8°F37.1°C 71.1°F21.7°C 34% 5.3 mph W8.5 kmh W 5.3 mph8.5 kmh 30.16 in1021.3 mb 0.00 in0.0 mm 0.00 in0.0 mm 0.00 in0.0 mm
05:15 PM 100.0°F37.8°C 70.5°F21.4°C 33% 4.4 mph NW7.1 kmh NW 4.4 mph7.1 kmh 30.16 in1021.3 mb 0.00 in0.0 mm 0.00 in0.0 mm 0.00 in0.0 mm
05:18 PM 98.4°F36.9°C 71.1°F21.7°C 34% 3.2 mph WNW5.1 kmh WNW 3.2 mph5.1 kmh 30.16 in1021.3 mb 0.00 in0.0 mm 0.00 in0.0 mm 0.00 in0.0 mm
05:21 PM 99.5°F37.5°C 71.7°F22.1°C 35% 3.2 mph WNW5.1 kmh WNW 3.2 mph5.1 kmh 30.16 in1021.3 mb 0.00 in0.0 mm 0.00 in0.0 mm 0.00 in0.0 mm
05:24 PM 99.4°F37.4°C 71.9°F22.2°C 35% 2.5 mph NNW4.0 kmh NNW 2.5 mph4.0 kmh 30.16 in1021.3 mb 0.00 in0.0 mm 0.00 in0.0 mm 0.00 in0.0 mm
05:30 PM 99.3°F37.4°C 72.5°F22.5°C 36% 4.7 mph WNW7.6 kmh WNW 4.7 mph7.6 kmh 30.16 in1021.3 mb 0.00 in0.0 mm 0.00 in0.0 mm 0.00 in0.0 mm
05:33 PM 100.0°F37.8°C 71.9°F22.2°C 36% 3.5 mph NW5.6 kmh NW 3.6 mph5.8 kmh 30.16 in1021.3 mb 0.00 in0.0 mm 0.00 in0.0 mm 0.00 in0.0 mm
05:36 PM 98.4°F36.9°C 72.3°F22.4°C 36% 2.4 mph NW3.9 kmh NW 2.4 mph3.9 kmh 30.16 in1021.3 mb 0.00 in0.0 mm 0.00 in0.0 mm 0.00 in0.0 mm
05:39 PM 99.5°F37.5°C 72.7°F22.6°C 37% 6.5 mph NW10.5 kmh NW 6.6 mph10.6 kmh 30.16 in1021.3 mb 0.00 in0.0 mm 0.00 in0.0 mm 0.00 in0.0 mm
05:45 PM 98.7°F37.1°C 73.5°F23.1°C 38% 4.1 mph NNW6.6 kmh NNW 4.1 mph6.6 kmh 30.16 in1021.3 mb 0.00 in0.0 mm 0.00 in0.0 mm 0.00 in0.0 mm
05:48 PM 98.3°F36.8°C 73.9°F23.3°C 38% 4.4 mph NNW7.1 kmh NNW 4.5 mph7.2 kmh 30.16 in1021.3 mb 0.00 in0.0 mm 0.00 in0.0 mm 0.00 in0.0 mm
05:51 PM 98.5°F36.9°C 73.4°F23.0°C 38% 3.5 mph NNW5.6 kmh NNW 3.5 mph5.6 kmh 30.16 in1021.3 mb 0.00 in0.0 mm 0.00 in0.0 mm 0.00 in0.0 mm
05:54 PM 98.2°F36.8°C 73.2°F22.9°C 38% 5.3 mph NNW8.5 kmh NNW 5.3 mph8.5 kmh 30.16 in1021.3 mb 0.00 in0.0 mm 0.00 in0.0 mm 0.00 in0.0 mm
05:57 PM 98.2°F36.8°C 73.4°F23.0°C 38% 4.2 mph NNW6.8 kmh NNW 4.3 mph6.9 kmh 30.16 in1021.3 mb 0.00 in0.0 mm 0.00 in0.0 mm 0.00 in0.0 mm
06:00 PM 97.9°F36.6°C 74.1°F23.4°C 39% 2.3 mph W3.7 kmh W 2.3 mph3.7 kmh 30.16 in1021.3 mb 0.00 in0.0 mm 0.00 in0.0 mm 0.00 in0.0 mm
06:03 PM 97.4°F36.3°C 74.1°F23.4°C 39% 4.4 mph W7.1 kmh W 4.4 mph7.1 kmh 30.16 in1021.3 mb 0.00 in0.0 mm 0.00 in0.0 mm 0.00 in0.0 mm
06:06 PM 98.5°F36.9°C 73.6°F23.1°C 39% 6.0 mph NW9.7 kmh NW 6.0 mph9.7 kmh 30.16 in1021.3 mb 0.00 in0.0 mm 0.00 in0.0 mm 0.00 in0.0 mm
06:09 PM 98.8°F37.1°C 73.8°F23.2°C 39% 5.6 mph NNW9.0 kmh NNW 5.6 mph9.0 kmh 30.16 in1021.3 mb 0.00 in0.0 mm 0.00 in0.0 mm 0.00 in0.0 mm
06:12 PM 97.3°F36.3°C 74.5°F23.6°C 40% 2.9 mph W4.7 kmh W 2.9 mph4.7 kmh 30.16 in1021.3 mb 0.00 in0.0 mm 0.00 in0.0 mm 0.00 in0.0 mm
06:15 PM 97.4°F36.3°C 74.2°F23.4°C 40% 4.9 mph NW7.9 kmh NW 4.9 mph7.9 kmh 30.16 in1021.3 mb 0.00 in0.0 mm 0.00 in0.0 mm 0.00 in0.0 mm
06:18 PM 97.4°F36.3°C 74.2°F23.4°C 40% 6.5 mph NW10.5 kmh NW 6.6 mph10.6 kmh 30.16 in1021.3 mb 0.00 in0.0 mm 0.00 in0.0 mm 0.00 in0.0 mm
06:21 PM 97.7°F36.5°C 74.6°F23.7°C 40% 2.3 mph NW3.7 kmh NW 2.3 mph3.7 kmh 30.16 in1021.3 mb 0.00 in0.0 mm 0.00 in0.0 mm 0.00 in0.0 mm
06:24 PM 96.1°F35.6°C 74.3°F23.5°C 40% 7.7 mph W12.4 kmh W 7.8 mph12.6 kmh 30.16 in1021.3 mb 0.00 in0.0 mm 0.00 in0.0 mm 0.00 in0.0 mm
06:30 PM 95.9°F35.5°C 73.9°F23.3°C 40% 3.5 mph W5.6 kmh W 3.5 mph5.6 kmh 30.16 in1021.3 mb 0.00 in0.0 mm 0.00 in0.0 mm 0.00 in0.0 mm
06:33 PM 95.3°F35.2°C 74.7°F23.7°C 41% 2.4 mph W3.9 kmh W 2.4 mph3.9 kmh 30.16 in1021.3 mb 0.00 in0.0 mm 0.00 in0.0 mm 0.00 in0.0 mm
06:36 PM 95.2°F35.1°C 74.1°F23.4°C 41% 3.6 mph WNW5.8 kmh WNW 3.7 mph6.0 kmh 30.16 in1021.3 mb 0.00 in0.0 mm 0.00 in0.0 mm 0.00 in0.0 mm
06:39 PM 95.5°F35.3°C 74.4°F23.6°C 41% 3.6 mph NNW5.8 kmh NNW 3.7 mph6.0 kmh 30.16 in1021.3 mb 0.00 in0.0 mm 0.00 in0.0 mm 0.00 in0.0 mm
06:42 PM 94.9°F34.9°C 74.0°F23.3°C 41% 4.4 mph NW7.1 kmh NW 4.5 mph7.2 kmh 30.16 in1021.3 mb 0.00 in0.0 mm 0.00 in0.0 mm 0.00 in0.0 mm
06:48 PM 94.2°F34.6°C 73.8°F23.2°C 41% 3.4 mph W5.5 kmh W 3.5 mph5.6 kmh 30.16 in1021.3 mb 0.00 in0.0 mm 0.00 in0.0 mm 0.00 in0.0 mm
06:54 PM 93.4°F34.1°C 73.7°F23.2°C 41% 3.4 mph NNW5.5 kmh NNW 3.5 mph5.6 kmh 30.16 in1021.3 mb 0.00 in0.0 mm 0.00 in0.0 mm 0.00 in0.0 mm
06:57 PM 93.3°F34.1°C 73.6°F23.1°C 41% 3.5 mph NW5.6 kmh NW 3.5 mph5.6 kmh 30.16 in1021.3 mb 0.00 in0.0 mm 0.00 in0.0 mm 0.00 in0.0 mm
07:00 PM 93.2°F34.0°C 74.1°F23.4°C 42% 3.8 mph NW6.1 kmh NW 3.8 mph6.1 kmh 30.16 in1021.3 mb 0.00 in0.0 mm 0.00 in0.0 mm 0.00 in0.0 mm
07:03 PM 93.1°F33.9°C 73.2°F22.9°C 41% 1.9 mph NNW3.1 kmh NNW 2.0 mph3.2 kmh 30.16 in1021.3 mb 0.00 in0.0 mm 0.00 in0.0 mm 0.00 in0.0 mm
07:09 PM 92.5°F33.6°C 72.4°F22.4°C 40% 2.8 mph NNW4.5 kmh NNW 2.9 mph4.7 kmh 30.16 in1021.3 mb 0.00 in0.0 mm 0.00 in0.0 mm 0.00 in0.0 mm
07:12 PM 92.0°F33.3°C 72.2°F22.3°C 40% 4.0 mph NNW6.4 kmh NNW 4.0 mph6.4 kmh 30.16 in1021.3 mb 0.00 in0.0 mm 0.00 in0.0 mm 0.00 in0.0 mm
07:15 PM 92.0°F33.3°C 72.7°F22.6°C 41% 2.4 mph 3.9 kmh 2.4 mph3.9 kmh 30.16 in1021.3 mb 0.00 in0.0 mm 0.00 in0.0 mm 0.00 in0.0 mm
07:18 PM 91.5°F33.1°C 72.0°F22.2°C 40% 3.2 mph NNW5.1 kmh NNW 3.3 mph5.3 kmh 30.16 in1021.3 mb 0.00 in0.0 mm 0.00 in0.0 mm 0.00 in0.0 mm
07:21 PM 91.2°F32.9°C 72.3°F22.4°C 41% 3.2 mph 5.1 kmh 3.3 mph5.3 kmh 30.16 in1021.3 mb 0.00 in0.0 mm 0.00 in0.0 mm 0.00 in0.0 mm
07:27 PM 90.6°F32.6°C 72.1°F22.3°C 41% 3.1 mph 5.0 kmh 3.1 mph5.0 kmh 30.16 in1021.3 mb 0.00 in0.0 mm 0.00 in0.0 mm 0.00 in0.0 mm
07:30 PM 89.8°F32.1°C 72.6°F22.6°C 41% 1.5 mph NNE2.4 kmh NNE 1.6 mph2.6 kmh 30.16 in1021.3 mb 0.00 in0.0 mm 0.00 in0.0 mm 0.00 in0.0 mm
07:33 PM 87.9°F31.1°C 73.5°F23.1°C 43% 3.6 mph NNE5.8 kmh NNE 3.7 mph6.0 kmh 30.16 in1021.3 mb 0.00 in0.0 mm 0.00 in0.0 mm 0.00 in0.0 mm
07:36 PM 88.0°F31.1°C 73.1°F22.8°C 43% 3.2 mph NNE5.1 kmh NNE 3.3 mph5.3 kmh 30.16 in1021.3 mb 0.00 in0.0 mm 0.00 in0.0 mm 0.00 in0.0 mm
07:39 PM 88.3°F31.3°C 73.6°F23.1°C 44% 1.2 mph NNE1.9 kmh NNE 1.2 mph1.9 kmh 30.16 in1021.3 mb 0.00 in0.0 mm 0.00 in0.0 mm 0.00 in0.0 mm
07:42 PM 87.6°F30.9°C 73.6°F23.1°C 44% 0.8 mph NE1.3 kmh NE 0.8 mph1.3 kmh 30.16 in1021.3 mb 0.00 in0.0 mm 0.00 in0.0 mm 0.00 in0.0 mm
07:45 PM 87.0°F30.6°C 73.3°F22.9°C 44% 1.1 mph NNW1.8 kmh NNW 1.2 mph1.9 kmh 30.16 in1021.3 mb 0.00 in0.0 mm 0.00 in0.0 mm 0.00 in0.0 mm
07:48 PM 86.7°F30.4°C 73.5°F23.1°C 45% 1.2 mph E1.9 kmh E 1.2 mph1.9 kmh 30.16 in1021.3 mb 0.00 in0.0 mm 0.00 in0.0 mm 0.00 in0.0 mm
07:51 PM 86.2°F30.1°C 73.4°F23.0°C 45% 2.0 mph NE3.2 kmh NE 2.0 mph3.2 kmh 30.16 in1021.3 mb 0.00 in0.0 mm 0.00 in0.0 mm 0.00 in0.0 mm
07:54 PM 85.8°F29.9°C 74.3°F23.5°C 47% Calm Calm -- 30.17 in1021.7 mb 0.00 in0.0 mm 0.00 in0.0 mm 0.00 in0.0 mm
07:57 PM 84.9°F29.4°C 74.4°F23.6°C 48% 0.4 mph ENE0.6 kmh ENE 0.4 mph0.6 kmh 30.16 in1021.3 mb 0.00 in0.0 mm 0.00 in0.0 mm 0.00 in0.0 mm
08:00 PM 84.8°F29.3°C 74.6°F23.7°C 48% 0.8 mph NE1.3 kmh NE 0.8 mph1.3 kmh 30.16 in1021.3 mb 0.00 in0.0 mm 0.00 in0.0 mm 0.00 in0.0 mm
08:03 PM 84.8°F29.3°C 73.8°F23.2°C 47% 1.6 mph NE2.6 kmh NE 1.6 mph2.6 kmh 30.16 in1021.3 mb 0.00 in0.0 mm 0.00 in0.0 mm 0.00 in0.0 mm
08:06 PM 84.1°F28.9°C 73.6°F23.1°C 47% 1.6 mph NE2.6 kmh NE 1.6 mph2.6 kmh 30.16 in1021.3 mb 0.00 in0.0 mm 0.00 in0.0 mm 0.00 in0.0 mm
08:12 PM 83.8°F28.8°C 73.6°F23.1°C 48% 1.6 mph NE2.6 kmh NE 1.6 mph2.6 kmh 30.17 in1021.7 mb 0.00 in0.0 mm 0.00 in0.0 mm 0.00 in0.0 mm
08:15 PM 83.6°F28.7°C 74.0°F23.3°C 49% 2.0 mph NE3.2 kmh NE 2.0 mph3.2 kmh 30.17 in1021.7 mb 0.00 in0.0 mm 0.00 in0.0 mm 0.00 in0.0 mm
08:18 PM 83.4°F28.6°C 73.7°F23.2°C 49% 1.6 mph NE2.6 kmh NE 1.6 mph2.6 kmh 30.16 in1021.3 mb 0.00 in0.0 mm 0.00 in0.0 mm 0.00 in0.0 mm
08:21 PM 83.4°F28.6°C 73.6°F23.1°C 49% 2.0 mph NE3.2 kmh NE 2.0 mph3.2 kmh 30.16 in1021.3 mb 0.00 in0.0 mm 0.00 in0.0 mm 0.00 in0.0 mm
08:24 PM 83.1°F28.4°C 73.4°F23.0°C 49% 0.8 mph ENE1.3 kmh ENE 0.8 mph1.3 kmh 30.17 in1021.7 mb 0.00 in0.0 mm 0.00 in0.0 mm 0.00 in0.0 mm
08:27 PM 83.5°F28.6°C 72.8°F22.7°C 49% 2.0 mph NE3.2 kmh NE 2.0 mph3.2 kmh 30.17 in1021.7 mb 0.00 in0.0 mm 0.00 in0.0 mm 0.00 in0.0 mm
08:30 PM 83.0°F28.3°C 73.2°F22.9°C 50% 1.2 mph NNW1.9 kmh NNW 1.2 mph1.9 kmh 30.17 in1021.7 mb 0.00 in0.0 mm 0.00 in0.0 mm 0.00 in0.0 mm
08:33 PM 83.1°F28.4°C 73.5°F23.1°C 51% 0.4 mph NNW0.6 kmh NNW 0.4 mph0.6 kmh 30.17 in1021.7 mb 0.00 in0.0 mm 0.00 in0.0 mm 0.00 in0.0 mm
08:36 PM 83.3°F28.5°C 73.1°F22.8°C 51% 1.6 mph ENE2.6 kmh ENE 1.6 mph2.6 kmh 30.17 in1021.7 mb 0.00 in0.0 mm 0.00 in0.0 mm 0.00 in0.0 mm
08:39 PM 83.0°F28.3°C 73.1°F22.8°C 51% 1.6 mph ENE2.6 kmh ENE 1.6 mph2.6 kmh 30.17 in1021.7 mb 0.00 in0.0 mm 0.00 in0.0 mm 0.00 in0.0 mm
08:42 PM 83.1°F28.4°C 73.3°F22.9°C 51% 5.6 mph NE9.0 kmh NE 5.7 mph9.2 kmh 30.17 in1021.7 mb 0.00 in0.0 mm 0.00 in0.0 mm 0.00 in0.0 mm
08:45 PM 83.2°F28.4°C 72.8°F22.7°C 51% 4.0 mph ENE6.4 kmh ENE 4.1 mph6.6 kmh 30.18 in1022.0 mb 0.00 in0.0 mm 0.00 in0.0 mm 0.00 in0.0 mm
08:48 PM 82.5°F28.1°C 73.2°F22.9°C 52% 0.8 mph ENE1.3 kmh ENE 0.8 mph1.3 kmh 30.18 in1022.0 mb 0.00 in0.0 mm 0.00 in0.0 mm 0.00 in0.0 mm
08:51 PM 82.5°F28.1°C 73.3°F22.9°C 52% 3.6 mph NE5.8 kmh NE 3.6 mph5.8 kmh 30.18 in1022.0 mb 0.00 in0.0 mm 0.00 in0.0 mm 0.00 in0.0 mm
08:54 PM 82.4°F28.0°C 73.0°F22.8°C 52% 1.2 mph ENE1.9 kmh ENE 1.2 mph1.9 kmh 30.18 in1022.0 mb 0.00 in0.0 mm 0.00 in0.0 mm 0.00 in0.0 mm
08:57 PM 82.2°F27.9°C 72.8°F22.7°C 52% 1.2 mph ENE1.9 kmh ENE 1.2 mph1.9 kmh 30.18 in1022.0 mb 0.00 in0.0 mm 0.00 in0.0 mm 0.00 in0.0 mm
09:03 PM 82.3°F27.9°C 73.0°F22.8°C 54% 1.6 mph E2.6 kmh E 1.6 mph2.6 kmh 30.18 in1022.0 mb 0.00 in0.0 mm 0.00 in0.0 mm 0.00 in0.0 mm
09:06 PM 82.1°F27.8°C 72.8°F22.7°C 53% 4.8 mph NE7.7 kmh NE 4.8 mph7.7 kmh 30.18 in1022.0 mb 0.00 in0.0 mm 0.00 in0.0 mm 0.00 in0.0 mm
09:09 PM 82.0°F27.8°C 72.8°F22.7°C 54% 0.8 mph E1.3 kmh E 0.8 mph1.3 kmh 30.18 in1022.0 mb 0.00 in0.0 mm 0.00 in0.0 mm 0.00 in0.0 mm
09:12 PM 81.6°F27.6°C 73.0°F22.8°C 54% 2.4 mph E3.9 kmh E 2.4 mph3.9 kmh 30.18 in1022.0 mb 0.00 in0.0 mm 0.00 in0.0 mm 0.00 in0.0 mm
09:15 PM 82.3°F27.9°C 72.8°F22.7°C 54% 1.6 mph ENE2.6 kmh ENE 1.6 mph2.6 kmh 30.18 in1022.0 mb 0.00 in0.0 mm 0.00 in0.0 mm 0.00 in0.0 mm
09:18 PM 81.6°F27.6°C 72.9°F22.7°C 55% 3.2 mph NE5.1 kmh NE 3.2 mph5.1 kmh 30.18 in1022.0 mb 0.00 in0.0 mm 0.00 in0.0 mm 0.00 in0.0 mm
09:21 PM 81.1°F27.3°C 73.0°F22.8°C 55% 1.6 mph NNW2.6 kmh NNW 1.6 mph2.6 kmh 30.18 in1022.0 mb 0.00 in0.0 mm 0.00 in0.0 mm 0.00 in0.0 mm
09:24 PM 81.5°F27.5°C 72.9°F22.7°C 55% 4.8 mph NE7.7 kmh NE 4.9 mph7.9 kmh 30.18 in1022.0 mb 0.00 in0.0 mm 0.00 in0.0 mm 0.00 in0.0 mm
09:30 PM 81.4°F27.4°C 73.0°F22.8°C 56% 7.7 mph NNE12.4 kmh NNE 7.7 mph12.4 kmh 30.18 in1022.0 mb 0.00 in0.0 mm 0.00 in0.0 mm 0.00 in0.0 mm
09:33 PM 81.4°F27.4°C 72.7°F22.6°C 56% 1.2 mph NE1.9 kmh NE 1.2 mph1.9 kmh 30.18 in1022.0 mb 0.00 in0.0 mm 0.00 in0.0 mm 0.00 in0.0 mm
09:39 PM 81.7°F27.6°C 71.9°F22.2°C 55% 7.2 mph NE11.6 kmh NE 7.2 mph11.6 kmh 30.18 in1022.0 mb 0.00 in0.0 mm 0.00 in0.0 mm 0.00 in0.0 mm
09:42 PM 81.3°F27.4°C 71.7°F22.1°C 55% 8.8 mph NNW14.2 kmh NNW 8.9 mph14.3 kmh 30.18 in1022.0 mb 0.00 in0.0 mm 0.00 in0.0 mm 0.00 in0.0 mm
09:45 PM 81.4°F27.4°C 71.8°F22.1°C 56% 3.6 mph E5.8 kmh E 3.7 mph6.0 kmh 30.18 in1022.0 mb 0.00 in0.0 mm 0.00 in0.0 mm 0.00 in0.0 mm
09:48 PM 81.1°F27.3°C 71.8°F22.1°C 56% 2.4 mph NE3.9 kmh NE 2.4 mph3.9 kmh 30.18 in1022.0 mb 0.00 in0.0 mm 0.00 in0.0 mm 0.00 in0.0 mm
09:51 PM 81.2°F27.3°C 71.5°F21.9°C 55% 9.3 mph NNW15.0 kmh NNW 9.4 mph15.1 kmh 30.18 in1022.0 mb 0.00 in0.0 mm 0.00 in0.0 mm 0.00 in0.0 mm
09:54 PM 80.9°F27.2°C 71.9°F22.2°C 56% 8.5 mph NE13.7 kmh NE 8.5 mph13.7 kmh 30.18 in1022.0 mb 0.00 in0.0 mm 0.00 in0.0 mm 0.00 in0.0 mm
09:57 PM 80.9°F27.2°C 71.3°F21.8°C 55% 6.1 mph NE9.8 kmh NE 6.1 mph9.8 kmh 30.18 in1022.0 mb 0.00 in0.0 mm 0.00 in0.0 mm 0.00 in0.0 mm
10:00 PM 81.2°F27.3°C 71.1°F21.7°C 55% 2.4 mph E3.9 kmh E 2.4 mph3.9 kmh 30.18 in1022.0 mb 0.00 in0.0 mm 0.00 in0.0 mm 0.00 in0.0 mm
10:03 PM 81.3°F27.4°C 70.5°F21.4°C 55% 9.3 mph NE15.0 kmh NE 9.4 mph15.1 kmh 30.18 in1022.0 mb 0.00 in0.0 mm 0.00 in0.0 mm 0.00 in0.0 mm
10:09 PM 80.4°F26.9°C 70.8°F21.6°C 55% 3.2 mph ENE5.1 kmh ENE 3.3 mph5.3 kmh 30.19 in1022.4 mb 0.00 in0.0 mm 0.00 in0.0 mm 0.00 in0.0 mm
10:12 PM 80.4°F26.9°C 70.6°F21.4°C 56% 5.4 mph ENE8.7 kmh ENE 5.4 mph8.7 kmh 30.18 in1022.0 mb 0.00 in0.0 mm 0.00 in0.0 mm 0.00 in0.0 mm
10:15 PM 80.0°F26.7°C 71.1°F21.7°C 56% 2.4 mph NE3.9 kmh NE 2.4 mph3.9 kmh 30.18 in1022.0 mb 0.00 in0.0 mm 0.00 in0.0 mm 0.00 in0.0 mm
10:18 PM 80.2°F26.8°C 70.7°F21.5°C 55% 2.8 mph E4.5 kmh E 2.8 mph4.5 kmh 30.18 in1022.0 mb 0.00 in0.0 mm 0.00 in0.0 mm 0.00 in0.0 mm
10:21 PM 80.6°F27.0°C 70.3°F21.3°C 55% 4.0 mph NNW6.4 kmh NNW 4.1 mph6.6 kmh 30.18 in1022.0 mb 0.00 in0.0 mm 0.00 in0.0 mm 0.00 in0.0 mm
10:24 PM 80.3°F26.8°C 70.4°F21.3°C 55% 3.6 mph NE5.8 kmh NE 3.7 mph6.0 kmh 30.19 in1022.4 mb 0.00 in0.0 mm 0.00 in0.0 mm 0.00 in0.0 mm
10:27 PM 80.0°F26.7°C 70.6°F21.4°C 55% 2.4 mph ENE3.9 kmh ENE 2.4 mph3.9 kmh 30.18 in1022.0 mb 0.00 in0.0 mm 0.00 in0.0 mm 0.00 in0.0 mm
10:30 PM 80.3°F26.8°C 70.3°F21.3°C 55% 2.0 mph E3.2 kmh E 2.0 mph3.2 kmh 30.18 in1022.0 mb 0.00 in0.0 mm 0.00 in0.0 mm 0.00 in0.0 mm
10:33 PM 80.4°F26.9°C 69.9°F21.1°C 55% 10.3 mph NE16.6 kmh NE 10.4 mph16.7 kmh 30.19 in1022.4 mb 0.00 in0.0 mm 0.00 in0.0 mm 0.00 in0.0 mm
10:36 PM 79.9°F26.6°C 70.0°F21.1°C 55% 4.8 mph E7.7 kmh E 4.9 mph7.9 kmh 30.18 in1022.0 mb 0.00 in0.0 mm 0.00 in0.0 mm 0.00 in0.0 mm
10:39 PM 80.2°F26.8°C 69.9°F21.1°C 56% 3.2 mph ENE5.1 kmh ENE 3.3 mph5.3 kmh 30.19 in1022.4 mb 0.00 in0.0 mm 0.00 in0.0 mm 0.00 in0.0 mm
10:42 PM 79.8°F26.6°C 69.8°F21.0°C 56% 5.7 mph NNE9.2 kmh NNE 5.7 mph9.2 kmh 30.19 in1022.4 mb 0.00 in0.0 mm 0.00 in0.0 mm 0.00 in0.0 mm
10:48 PM 79.7°F26.5°C 69.8°F21.0°C 56% 2.4 mph NE3.9 kmh NE 2.4 mph3.9 kmh 30.19 in1022.4 mb 0.00 in0.0 mm 0.00 in0.0 mm 0.00 in0.0 mm
10:51 PM 79.8°F26.6°C 70.0°F21.1°C 57% 3.2 mph ENE5.1 kmh ENE 3.2 mph5.1 kmh 30.19 in1022.4 mb 0.00 in0.0 mm 0.00 in0.0 mm 0.00 in0.0 mm
10:54 PM 79.5°F26.4°C 70.1°F21.2°C 57% 7.9 mph NE12.7 kmh NE 8.0 mph12.9 kmh 30.19 in1022.4 mb 0.00 in0.0 mm 0.00 in0.0 mm 0.00 in0.0 mm
10:57 PM 79.4°F26.3°C 70.2°F21.2°C 58% 4.0 mph NE6.4 kmh NE 4.1 mph6.6 kmh 30.19 in1022.4 mb 0.00 in0.0 mm 0.00 in0.0 mm 0.00 in0.0 mm
11:00 PM 79.8°F26.6°C 69.9°F21.1°C 58% 4.8 mph NE7.7 kmh NE 4.8 mph7.7 kmh 30.18 in1022.0 mb 0.00 in0.0 mm 0.00 in0.0 mm 0.00 in0.0 mm
11:03 PM 79.6°F26.4°C 69.8°F21.0°C 57% 4.2 mph ESE6.8 kmh ESE 4.3 mph6.9 kmh 30.18 in1022.0 mb 0.00 in0.0 mm 0.00 in0.0 mm 0.00 in0.0 mm
11:06 PM 79.3°F26.3°C 70.2°F21.2°C 57% 5.1 mph NE8.2 kmh NE 5.2 mph8.4 kmh 30.19 in1022.4 mb 0.00 in0.0 mm 0.00 in0.0 mm 0.00 in0.0 mm
11:09 PM 79.3°F26.3°C 70.0°F21.1°C 58% 8.1 mph ENE13.0 kmh ENE 8.1 mph13.0 kmh 30.18 in1022.0 mb 0.00 in0.0 mm 0.00 in0.0 mm 0.00 in0.0 mm
11:12 PM 78.9°F26.1°C 69.8°F21.0°C 58% 4.8 mph E7.7 kmh E 4.9 mph7.9 kmh 30.18 in1022.0 mb 0.00 in0.0 mm 0.00 in0.0 mm 0.00 in0.0 mm
11:15 PM 78.7°F25.9°C 70.7°F21.5°C 59% 5.5 mph NE8.9 kmh NE 5.5 mph8.9 kmh 30.18 in1022.0 mb 0.00 in0.0 mm 0.00 in0.0 mm 0.00 in0.0 mm
11:18 PM 78.8°F26.0°C 70.2°F21.2°C 59% 6.9 mph NNW11.1 kmh NNW 6.9 mph11.1 kmh 30.18 in1022.0 mb 0.00 in0.0 mm 0.00 in0.0 mm 0.00 in0.0 mm
11:21 PM 78.7°F25.9°C 70.3°F21.3°C 59% 6.8 mph NE10.9 kmh NE 6.8 mph10.9 kmh 30.18 in1022.0 mb 0.00 in0.0 mm 0.00 in0.0 mm 0.00 in0.0 mm
11:24 PM 78.9°F26.1°C 70.3°F21.3°C 59% 11.3 mph NE18.2 kmh NE 11.4 mph18.3 kmh 30.18 in1022.0 mb 0.00 in0.0 mm 0.00 in0.0 mm 0.00 in0.0 mm
11:27 PM 78.5°F25.8°C 70.4°F21.3°C 60% 8.3 mph E13.4 kmh E 8.4 mph13.5 kmh 30.18 in1022.0 mb 0.00 in0.0 mm 0.00 in0.0 mm 0.00 in0.0 mm
11:30 PM 78.4°F25.8°C 70.2°F21.2°C 60% 5.3 mph NE8.5 kmh NE 5.3 mph8.5 kmh 30.18 in1022.0 mb 0.00 in0.0 mm 0.00 in0.0 mm 0.00 in0.0 mm
11:33 PM 78.4°F25.8°C 70.4°F21.3°C 61% 10.1 mph NE16.3 kmh NE 10.1 mph16.3 kmh 30.18 in1022.0 mb 0.00 in0.0 mm 0.00 in0.0 mm 0.00 in0.0 mm
11:36 PM 78.2°F25.7°C 70.1°F21.2°C 60% 6.5 mph 10.5 kmh 6.5 mph10.5 kmh 30.18 in1022.0 mb 0.00 in0.0 mm 0.00 in0.0 mm 0.00 in0.0 mm
11:39 PM 77.9°F25.5°C 70.6°F21.4°C 62% 7.7 mph E12.4 kmh E 7.8 mph12.6 kmh 30.18 in1022.0 mb 0.00 in0.0 mm 0.00 in0.0 mm 0.00 in0.0 mm
11:42 PM 77.8°F25.4°C 70.5°F21.4°C 61% 9.2 mph NNW14.8 kmh NNW 9.2 mph14.8 kmh 30.18 in1022.0 mb 0.00 in0.0 mm 0.00 in0.0 mm 0.00 in0.0 mm
11:45 PM 77.8°F25.4°C 70.3°F21.3°C 62% 9.3 mph NE15.0 kmh NE 9.4 mph15.1 kmh 30.18 in1022.0 mb 0.00 in0.0 mm 0.00 in0.0 mm 0.00 in0.0 mm
11:48 PM 77.5°F25.3°C 70.9°F21.6°C 62% 5.7 mph NE9.2 kmh NE 5.7 mph9.2 kmh 30.18 in1022.0 mb 0.00 in0.0 mm 0.00 in0.0 mm 0.00 in0.0 mm
11:51 PM 77.6°F25.3°C 70.8°F21.6°C 62% 8.1 mph NE13.0 kmh NE 8.1 mph13.0 kmh 30.18 in1022.0 mb 0.00 in0.0 mm 0.00 in0.0 mm 0.00 in0.0 mm
11:54 PM 77.5°F25.3°C 71.0°F21.7°C 63% 9.9 mph NNE15.9 kmh NNE 10.2 mph16.4 kmh 30.18 in1022.0 mb 0.00 in0.0 mm 0.00 in0.0 mm 0.00 in0.0 mm
11:57 PM 77.3°F25.2°C 70.9°F21.6°C 63% 5.0 mph E8.0 kmh E 5.0 mph8.0 kmh 30.18 in1022.0 mb 0.00 in0.0 mm 0.00 in0.0 mm 0.00 in0.0 mm